<?xml version="1.0" encoding="UTF-8" standalone="no" ?>
<gpx xmlns="http://www.topografix.com/GPX/1/1" xmlns:xsi="http://www.w3.org/2001/XMLSchema-instance" xsi:schemaLocation="http://www.topografix.com/GPX/1/1 http://www.topografix.com/GPX/1/1/gpx.xsd" version="1.1" creator="VisuGPX - https://www.visugpx.com">
  <metadata>
    <name>ST_RAD - MONA 16km  -400m</name>
    <desc><![CDATA[sortie de 16 km ]]></desc>
  </metadata>
  <trk>
    <name><![CDATA[st RA-mo 16km]]></name>
    <trkseg>
      <trkpt lat="44.33565" lon="2.62932">
        <ele>635.5686035</ele>
        <time>2014-01-11T07:47:50Z</time>
      </trkpt>
      <trkpt lat="44.33564" lon="2.62931">
        <ele>635.5686035</ele>
        <time>2014-01-11T07:47:51Z</time>
      </trkpt>
      <trkpt lat="44.33561" lon="2.62917">
        <ele>637.972168</ele>
        <time>2014-01-11T07:47:56Z</time>
      </trkpt>
      <trkpt lat="44.33556" lon="2.62901">
        <ele>638.9335938</ele>
        <time>2014-01-11T07:48:01Z</time>
      </trkpt>
      <trkpt lat="44.33551" lon="2.62892">
        <ele>641.3366699</ele>
        <time>2014-01-11T07:48:04Z</time>
      </trkpt>
      <trkpt lat="44.33551" lon="2.62877">
        <ele>643.7399902</ele>
        <time>2014-01-11T07:48:09Z</time>
      </trkpt>
      <trkpt lat="44.33552" lon="2.62873">
        <ele>643.2592773</ele>
        <time>2014-01-11T07:48:10Z</time>
      </trkpt>
      <trkpt lat="44.33558" lon="2.62864">
        <ele>642.7788086</ele>
        <time>2014-01-11T07:48:14Z</time>
      </trkpt>
      <trkpt lat="44.33561" lon="2.6286">
        <ele>642.7788086</ele>
        <time>2014-01-11T07:48:16Z</time>
      </trkpt>
      <trkpt lat="44.33569" lon="2.62849">
        <ele>641.8173828</ele>
        <time>2014-01-11T07:48:21Z</time>
      </trkpt>
      <trkpt lat="44.33578" lon="2.62838">
        <ele>642.2980957</ele>
        <time>2014-01-11T07:48:27Z</time>
      </trkpt>
      <trkpt lat="44.33584" lon="2.62831">
        <ele>644.2207031</ele>
        <time>2014-01-11T07:48:31Z</time>
      </trkpt>
      <trkpt lat="44.33587" lon="2.62829">
        <ele>644.2207031</ele>
        <time>2014-01-11T07:48:33Z</time>
      </trkpt>
      <trkpt lat="44.33595" lon="2.62827">
        <ele>643.2592773</ele>
        <time>2014-01-11T07:48:37Z</time>
      </trkpt>
      <trkpt lat="44.33607" lon="2.62823">
        <ele>644.7011719</ele>
        <time>2014-01-11T07:48:43Z</time>
      </trkpt>
      <trkpt lat="44.3362" lon="2.6282">
        <ele>643.7399902</ele>
        <time>2014-01-11T07:48:50Z</time>
      </trkpt>
      <trkpt lat="44.3363" lon="2.62817">
        <ele>640.855957</ele>
        <time>2014-01-11T07:48:55Z</time>
      </trkpt>
      <trkpt lat="44.33639" lon="2.62815">
        <ele>639.8947754</ele>
        <time>2014-01-11T07:48:59Z</time>
      </trkpt>
      <trkpt lat="44.33649" lon="2.62815">
        <ele>638.9335938</ele>
        <time>2014-01-11T07:49:03Z</time>
      </trkpt>
      <trkpt lat="44.33659" lon="2.62812">
        <ele>639.4140625</ele>
        <time>2014-01-11T07:49:08Z</time>
      </trkpt>
      <trkpt lat="44.33668" lon="2.62805">
        <ele>645.1818848</ele>
        <time>2014-01-11T07:49:13Z</time>
      </trkpt>
      <trkpt lat="44.33679" lon="2.62799">
        <ele>646.1433105</ele>
        <time>2014-01-11T07:49:18Z</time>
      </trkpt>
      <trkpt lat="44.33687" lon="2.62794">
        <ele>645.6625977</ele>
        <time>2014-01-11T07:49:22Z</time>
      </trkpt>
      <trkpt lat="44.33692" lon="2.62775">
        <ele>649.9885254</ele>
        <time>2014-01-11T07:49:28Z</time>
      </trkpt>
      <trkpt lat="44.33697" lon="2.62764">
        <ele>652.8725586</ele>
        <time>2014-01-11T07:49:32Z</time>
      </trkpt>
      <trkpt lat="44.33698" lon="2.62761">
        <ele>654.795166</ele>
        <time>2014-01-11T07:49:33Z</time>
      </trkpt>
      <trkpt lat="44.33704" lon="2.62737">
        <ele>663.4470215</ele>
        <time>2014-01-11T07:49:40Z</time>
      </trkpt>
      <trkpt lat="44.33709" lon="2.62729">
        <ele>664.888916</ele>
        <time>2014-01-11T07:49:43Z</time>
      </trkpt>
      <trkpt lat="44.33715" lon="2.62713">
        <ele>667.2922363</ele>
        <time>2014-01-11T07:49:48Z</time>
      </trkpt>
      <trkpt lat="44.33723" lon="2.627">
        <ele>668.2536621</ele>
        <time>2014-01-11T07:49:53Z</time>
      </trkpt>
      <trkpt lat="44.33733" lon="2.6269">
        <ele>669.6958008</ele>
        <time>2014-01-11T07:49:58Z</time>
      </trkpt>
      <trkpt lat="44.33739" lon="2.62681">
        <ele>672.098877</ele>
        <time>2014-01-11T07:50:02Z</time>
      </trkpt>
      <trkpt lat="44.33745" lon="2.62668">
        <ele>672.5795898</ele>
        <time>2014-01-11T07:50:07Z</time>
      </trkpt>
      <trkpt lat="44.33751" lon="2.62655">
        <ele>670.6569824</ele>
        <time>2014-01-11T07:50:11Z</time>
      </trkpt>
      <trkpt lat="44.33753" lon="2.62652">
        <ele>670.6569824</ele>
        <time>2014-01-11T07:50:12Z</time>
      </trkpt>
      <trkpt lat="44.33761" lon="2.62633">
        <ele>670.1762695</ele>
        <time>2014-01-11T07:50:18Z</time>
      </trkpt>
      <trkpt lat="44.33764" lon="2.62626">
        <ele>669.6958008</ele>
        <time>2014-01-11T07:50:20Z</time>
      </trkpt>
      <trkpt lat="44.33767" lon="2.62608">
        <ele>670.1762695</ele>
        <time>2014-01-11T07:50:25Z</time>
      </trkpt>
      <trkpt lat="44.3377" lon="2.62602">
        <ele>669.6958008</ele>
        <time>2014-01-11T07:50:27Z</time>
      </trkpt>
      <trkpt lat="44.33781" lon="2.62591">
        <ele>669.2150879</ele>
        <time>2014-01-11T07:50:32Z</time>
      </trkpt>
      <trkpt lat="44.33799" lon="2.62589">
        <ele>668.734375</ele>
        <time>2014-01-11T07:50:39Z</time>
      </trkpt>
      <trkpt lat="44.33817" lon="2.6259">
        <ele>668.734375</ele>
        <time>2014-01-11T07:50:45Z</time>
      </trkpt>
      <trkpt lat="44.3382" lon="2.62591">
        <ele>668.734375</ele>
        <time>2014-01-11T07:50:46Z</time>
      </trkpt>
      <trkpt lat="44.33836" lon="2.62589">
        <ele>667.2922363</ele>
        <time>2014-01-11T07:50:51Z</time>
      </trkpt>
      <trkpt lat="44.33845" lon="2.62585">
        <ele>666.8115234</ele>
        <time>2014-01-11T07:50:55Z</time>
      </trkpt>
      <trkpt lat="44.33854" lon="2.62576">
        <ele>664.4082031</ele>
        <time>2014-01-11T07:51:00Z</time>
      </trkpt>
      <trkpt lat="44.33864" lon="2.62562">
        <ele>663.4470215</ele>
        <time>2014-01-11T07:51:05Z</time>
      </trkpt>
      <trkpt lat="44.33872" lon="2.62546">
        <ele>662.9663086</ele>
        <time>2014-01-11T07:51:10Z</time>
      </trkpt>
      <trkpt lat="44.33883" lon="2.62524">
        <ele>662.4855957</ele>
        <time>2014-01-11T07:51:17Z</time>
      </trkpt>
      <trkpt lat="44.33894" lon="2.62505">
        <ele>660.0822754</ele>
        <time>2014-01-11T07:51:23Z</time>
      </trkpt>
      <trkpt lat="44.33904" lon="2.62492">
        <ele>658.6403809</ele>
        <time>2014-01-11T07:51:28Z</time>
      </trkpt>
      <trkpt lat="44.33916" lon="2.62477">
        <ele>656.7177734</ele>
        <time>2014-01-11T07:51:34Z</time>
      </trkpt>
      <trkpt lat="44.33923" lon="2.62465">
        <ele>656.2370605</ele>
        <time>2014-01-11T07:51:38Z</time>
      </trkpt>
      <trkpt lat="44.33926" lon="2.6245">
        <ele>655.2758789</ele>
        <time>2014-01-11T07:51:42Z</time>
      </trkpt>
      <trkpt lat="44.33929" lon="2.6243">
        <ele>655.7565918</ele>
        <time>2014-01-11T07:51:47Z</time>
      </trkpt>
      <trkpt lat="44.33931" lon="2.62407">
        <ele>655.2758789</ele>
        <time>2014-01-11T07:51:53Z</time>
      </trkpt>
      <trkpt lat="44.33931" lon="2.62388">
        <ele>654.3146973</ele>
        <time>2014-01-11T07:51:58Z</time>
      </trkpt>
      <trkpt lat="44.33929" lon="2.6237">
        <ele>653.8339844</ele>
        <time>2014-01-11T07:52:03Z</time>
      </trkpt>
      <trkpt lat="44.33925" lon="2.62342">
        <ele>653.8339844</ele>
        <time>2014-01-11T07:52:10Z</time>
      </trkpt>
      <trkpt lat="44.33923" lon="2.62315">
        <ele>651.9111328</ele>
        <time>2014-01-11T07:52:17Z</time>
      </trkpt>
      <trkpt lat="44.33923" lon="2.62292">
        <ele>649.9885254</ele>
        <time>2014-01-11T07:52:23Z</time>
      </trkpt>
      <trkpt lat="44.33927" lon="2.62269">
        <ele>649.5078125</ele>
        <time>2014-01-11T07:52:29Z</time>
      </trkpt>
      <trkpt lat="44.33936" lon="2.62249">
        <ele>649.5078125</ele>
        <time>2014-01-11T07:52:35Z</time>
      </trkpt>
      <trkpt lat="44.33946" lon="2.62234">
        <ele>648.065918</ele>
        <time>2014-01-11T07:52:40Z</time>
      </trkpt>
      <trkpt lat="44.33955" lon="2.62215">
        <ele>647.1044922</ele>
        <time>2014-01-11T07:52:46Z</time>
      </trkpt>
      <trkpt lat="44.33961" lon="2.62203">
        <ele>646.6240234</ele>
        <time>2014-01-11T07:52:50Z</time>
      </trkpt>
      <trkpt lat="44.33967" lon="2.62187">
        <ele>645.6625977</ele>
        <time>2014-01-11T07:52:55Z</time>
      </trkpt>
      <trkpt lat="44.33974" lon="2.62176">
        <ele>644.2207031</ele>
        <time>2014-01-11T07:52:59Z</time>
      </trkpt>
      <trkpt lat="44.3398" lon="2.6215">
        <ele>641.8173828</ele>
        <time>2014-01-11T07:53:06Z</time>
      </trkpt>
      <trkpt lat="44.33986" lon="2.62125">
        <ele>638.9335938</ele>
        <time>2014-01-11T07:53:13Z</time>
      </trkpt>
      <trkpt lat="44.3399" lon="2.62108">
        <ele>637.4914551</ele>
        <time>2014-01-11T07:53:18Z</time>
      </trkpt>
      <trkpt lat="44.33995" lon="2.6209">
        <ele>636.0495605</ele>
        <time>2014-01-11T07:53:23Z</time>
      </trkpt>
      <trkpt lat="44.33998" lon="2.62071">
        <ele>635.0881348</ele>
        <time>2014-01-11T07:53:28Z</time>
      </trkpt>
      <trkpt lat="44.34002" lon="2.62055">
        <ele>634.126709</ele>
        <time>2014-01-11T07:53:33Z</time>
      </trkpt>
      <trkpt lat="44.34007" lon="2.62038">
        <ele>633.1652832</ele>
        <time>2014-01-11T07:53:38Z</time>
      </trkpt>
      <trkpt lat="44.34014" lon="2.62016">
        <ele>631.2429199</ele>
        <time>2014-01-11T07:53:44Z</time>
      </trkpt>
      <trkpt lat="44.34021" lon="2.61995">
        <ele>629.3200684</ele>
        <time>2014-01-11T07:53:50Z</time>
      </trkpt>
      <trkpt lat="44.34027" lon="2.61978">
        <ele>627.3977051</ele>
        <time>2014-01-11T07:53:55Z</time>
      </trkpt>
      <trkpt lat="44.34034" lon="2.61956">
        <ele>624.9943848</ele>
        <time>2014-01-11T07:54:01Z</time>
      </trkpt>
      <trkpt lat="44.34043" lon="2.61932">
        <ele>623.0717773</ele>
        <time>2014-01-11T07:54:08Z</time>
      </trkpt>
      <trkpt lat="44.3405" lon="2.61911">
        <ele>623.0717773</ele>
        <time>2014-01-11T07:54:14Z</time>
      </trkpt>
      <trkpt lat="44.34056" lon="2.61897">
        <ele>621.6296387</ele>
        <time>2014-01-11T07:54:18Z</time>
      </trkpt>
      <trkpt lat="44.34062" lon="2.61878">
        <ele>621.6296387</ele>
        <time>2014-01-11T07:54:23Z</time>
      </trkpt>
      <trkpt lat="44.34071" lon="2.61854">
        <ele>621.1491699</ele>
        <time>2014-01-11T07:54:30Z</time>
      </trkpt>
      <trkpt lat="44.34074" lon="2.61839">
        <ele>620.668457</ele>
        <time>2014-01-11T07:54:35Z</time>
      </trkpt>
      <trkpt lat="44.34074" lon="2.61838">
        <ele>620.1877441</ele>
        <time>2014-01-11T07:54:39Z</time>
      </trkpt>
      <trkpt lat="44.34074" lon="2.61831">
        <ele>619.7070313</ele>
        <time>2014-01-11T07:54:44Z</time>
      </trkpt>
      <trkpt lat="44.34066" lon="2.61814">
        <ele>619.7070313</ele>
        <time>2014-01-11T07:54:50Z</time>
      </trkpt>
      <trkpt lat="44.3406" lon="2.61802">
        <ele>620.1877441</ele>
        <time>2014-01-11T07:54:54Z</time>
      </trkpt>
      <trkpt lat="44.34049" lon="2.61787">
        <ele>621.1491699</ele>
        <time>2014-01-11T07:55:00Z</time>
      </trkpt>
      <trkpt lat="44.34041" lon="2.61776">
        <ele>621.6296387</ele>
        <time>2014-01-11T07:55:04Z</time>
      </trkpt>
      <trkpt lat="44.34027" lon="2.61762">
        <ele>621.1491699</ele>
        <time>2014-01-11T07:55:10Z</time>
      </trkpt>
      <trkpt lat="44.34019" lon="2.61751">
        <ele>621.1491699</ele>
        <time>2014-01-11T07:55:14Z</time>
      </trkpt>
      <trkpt lat="44.34009" lon="2.61738">
        <ele>621.1491699</ele>
        <time>2014-01-11T07:55:19Z</time>
      </trkpt>
      <trkpt lat="44.34003" lon="2.61731">
        <ele>621.1491699</ele>
        <time>2014-01-11T07:55:22Z</time>
      </trkpt>
      <trkpt lat="44.33996" lon="2.6172">
        <ele>622.5910645</ele>
        <time>2014-01-11T07:55:26Z</time>
      </trkpt>
      <trkpt lat="44.33983" lon="2.6171">
        <ele>621.6296387</ele>
        <time>2014-01-11T07:55:31Z</time>
      </trkpt>
      <trkpt lat="44.33974" lon="2.61701">
        <ele>621.1491699</ele>
        <time>2014-01-11T07:55:35Z</time>
      </trkpt>
      <trkpt lat="44.33962" lon="2.61686">
        <ele>621.1491699</ele>
        <time>2014-01-11T07:55:41Z</time>
      </trkpt>
      <trkpt lat="44.33949" lon="2.6167">
        <ele>619.2263184</ele>
        <time>2014-01-11T07:55:47Z</time>
      </trkpt>
      <trkpt lat="44.3394" lon="2.61657">
        <ele>619.2263184</ele>
        <time>2014-01-11T07:55:52Z</time>
      </trkpt>
      <trkpt lat="44.33932" lon="2.61645">
        <ele>619.2263184</ele>
        <time>2014-01-11T07:55:56Z</time>
      </trkpt>
      <trkpt lat="44.33927" lon="2.61632">
        <ele>619.7070313</ele>
        <time>2014-01-11T07:56:00Z</time>
      </trkpt>
      <trkpt lat="44.33919" lon="2.61616">
        <ele>618.7456055</ele>
        <time>2014-01-11T07:56:05Z</time>
      </trkpt>
      <trkpt lat="44.33911" lon="2.61597">
        <ele>616.822998</ele>
        <time>2014-01-11T07:56:11Z</time>
      </trkpt>
      <trkpt lat="44.33901" lon="2.61578">
        <ele>615.8618164</ele>
        <time>2014-01-11T07:56:17Z</time>
      </trkpt>
      <trkpt lat="44.33897" lon="2.61572">
        <ele>614.9003906</ele>
        <time>2014-01-11T07:56:19Z</time>
      </trkpt>
      <trkpt lat="44.33892" lon="2.61555">
        <ele>613.9389648</ele>
        <time>2014-01-11T07:56:23Z</time>
      </trkpt>
      <trkpt lat="44.3389" lon="2.61541">
        <ele>612.9777832</ele>
        <time>2014-01-11T07:56:27Z</time>
      </trkpt>
      <trkpt lat="44.33887" lon="2.6152">
        <ele>611.5358887</ele>
        <time>2014-01-11T07:56:33Z</time>
      </trkpt>
      <trkpt lat="44.33883" lon="2.61497">
        <ele>612.0166016</ele>
        <time>2014-01-11T07:56:39Z</time>
      </trkpt>
      <trkpt lat="44.33879" lon="2.61483">
        <ele>613.9389648</ele>
        <time>2014-01-11T07:56:43Z</time>
      </trkpt>
      <trkpt lat="44.33868" lon="2.61465">
        <ele>614.4196777</ele>
        <time>2014-01-11T07:56:49Z</time>
      </trkpt>
      <trkpt lat="44.33856" lon="2.61454">
        <ele>613.9389648</ele>
        <time>2014-01-11T07:56:54Z</time>
      </trkpt>
      <trkpt lat="44.33843" lon="2.61436">
        <ele>612.0166016</ele>
        <time>2014-01-11T07:57:00Z</time>
      </trkpt>
      <trkpt lat="44.3384" lon="2.6143">
        <ele>611.5358887</ele>
        <time>2014-01-11T07:57:02Z</time>
      </trkpt>
      <trkpt lat="44.33832" lon="2.61414">
        <ele>610.5744629</ele>
        <time>2014-01-11T07:57:07Z</time>
      </trkpt>
      <trkpt lat="44.33822" lon="2.61395">
        <ele>609.6132813</ele>
        <time>2014-01-11T07:57:13Z</time>
      </trkpt>
      <trkpt lat="44.33816" lon="2.61376">
        <ele>610.09375</ele>
        <time>2014-01-11T07:57:18Z</time>
      </trkpt>
      <trkpt lat="44.33817" lon="2.61367">
        <ele>611.0551758</ele>
        <time>2014-01-11T07:57:20Z</time>
      </trkpt>
      <trkpt lat="44.33812" lon="2.61343">
        <ele>612.9777832</ele>
        <time>2014-01-11T07:57:26Z</time>
      </trkpt>
      <trkpt lat="44.33809" lon="2.61325">
        <ele>613.9389648</ele>
        <time>2014-01-11T07:57:31Z</time>
      </trkpt>
      <trkpt lat="44.33803" lon="2.61309">
        <ele>612.0166016</ele>
        <time>2014-01-11T07:57:36Z</time>
      </trkpt>
      <trkpt lat="44.33795" lon="2.6129">
        <ele>611.0551758</ele>
        <time>2014-01-11T07:57:42Z</time>
      </trkpt>
      <trkpt lat="44.33793" lon="2.61279">
        <ele>611.0551758</ele>
        <time>2014-01-11T07:57:45Z</time>
      </trkpt>
      <trkpt lat="44.33796" lon="2.61253">
        <ele>610.5744629</ele>
        <time>2014-01-11T07:57:52Z</time>
      </trkpt>
      <trkpt lat="44.338" lon="2.61231">
        <ele>609.1325684</ele>
        <time>2014-01-11T07:57:58Z</time>
      </trkpt>
      <trkpt lat="44.33798" lon="2.61208">
        <ele>606.729248</ele>
        <time>2014-01-11T07:58:04Z</time>
      </trkpt>
      <trkpt lat="44.33796" lon="2.61189">
        <ele>604.8066406</ele>
        <time>2014-01-11T07:58:09Z</time>
      </trkpt>
      <trkpt lat="44.33795" lon="2.61171">
        <ele>601.9226074</ele>
        <time>2014-01-11T07:58:14Z</time>
      </trkpt>
      <trkpt lat="44.33796" lon="2.61148">
        <ele>598.0773926</ele>
        <time>2014-01-11T07:58:20Z</time>
      </trkpt>
      <trkpt lat="44.33798" lon="2.6114">
        <ele>598.0773926</ele>
        <time>2014-01-11T07:58:22Z</time>
      </trkpt>
      <trkpt lat="44.33808" lon="2.61126">
        <ele>597.1159668</ele>
        <time>2014-01-11T07:58:27Z</time>
      </trkpt>
      <trkpt lat="44.33816" lon="2.61116">
        <ele>596.635498</ele>
        <time>2014-01-11T07:58:31Z</time>
      </trkpt>
      <trkpt lat="44.33825" lon="2.61108">
        <ele>596.1547852</ele>
        <time>2014-01-11T07:58:35Z</time>
      </trkpt>
      <trkpt lat="44.33833" lon="2.611">
        <ele>596.1547852</ele>
        <time>2014-01-11T07:58:39Z</time>
      </trkpt>
      <trkpt lat="44.33844" lon="2.61086">
        <ele>597.5966797</ele>
        <time>2014-01-11T07:58:45Z</time>
      </trkpt>
      <trkpt lat="44.33855" lon="2.61073">
        <ele>598.0773926</ele>
        <time>2014-01-11T07:58:51Z</time>
      </trkpt>
      <trkpt lat="44.33864" lon="2.61061">
        <ele>598.0773926</ele>
        <time>2014-01-11T07:58:57Z</time>
      </trkpt>
      <trkpt lat="44.33872" lon="2.61055">
        <ele>598.5578613</ele>
        <time>2014-01-11T07:59:01Z</time>
      </trkpt>
      <trkpt lat="44.33883" lon="2.61047">
        <ele>598.5578613</ele>
        <time>2014-01-11T07:59:06Z</time>
      </trkpt>
      <trkpt lat="44.33895" lon="2.61035">
        <ele>599.0385742</ele>
        <time>2014-01-11T07:59:12Z</time>
      </trkpt>
      <trkpt lat="44.33901" lon="2.61027">
        <ele>599.5192871</ele>
        <time>2014-01-11T07:59:16Z</time>
      </trkpt>
      <trkpt lat="44.3391" lon="2.61017">
        <ele>600.4807129</ele>
        <time>2014-01-11T07:59:21Z</time>
      </trkpt>
      <trkpt lat="44.33921" lon="2.61006">
        <ele>601.9226074</ele>
        <time>2014-01-11T07:59:27Z</time>
      </trkpt>
      <trkpt lat="44.33936" lon="2.60996">
        <ele>601.4418945</ele>
        <time>2014-01-11T07:59:34Z</time>
      </trkpt>
      <trkpt lat="44.33948" lon="2.60991">
        <ele>601.9226074</ele>
        <time>2014-01-11T07:59:39Z</time>
      </trkpt>
      <trkpt lat="44.33959" lon="2.60983">
        <ele>601.9226074</ele>
        <time>2014-01-11T07:59:44Z</time>
      </trkpt>
      <trkpt lat="44.33973" lon="2.60975">
        <ele>600.9611816</ele>
        <time>2014-01-11T07:59:50Z</time>
      </trkpt>
      <trkpt lat="44.3398" lon="2.6097">
        <ele>601.9226074</ele>
        <time>2014-01-11T07:59:54Z</time>
      </trkpt>
      <trkpt lat="44.33992" lon="2.60964">
        <ele>603.364502</ele>
        <time>2014-01-11T08:00:00Z</time>
      </trkpt>
      <trkpt lat="44.33999" lon="2.6096">
        <ele>603.8452148</ele>
        <time>2014-01-11T08:00:04Z</time>
      </trkpt>
      <trkpt lat="44.34005" lon="2.60955">
        <ele>604.3261719</ele>
        <time>2014-01-11T08:00:07Z</time>
      </trkpt>
      <trkpt lat="44.34014" lon="2.60949">
        <ele>605.7680664</ele>
        <time>2014-01-11T08:00:11Z</time>
      </trkpt>
      <trkpt lat="44.34028" lon="2.60938">
        <ele>607.6906738</ele>
        <time>2014-01-11T08:00:18Z</time>
      </trkpt>
      <trkpt lat="44.34037" lon="2.60929">
        <ele>608.6518555</ele>
        <time>2014-01-11T08:00:23Z</time>
      </trkpt>
      <trkpt lat="44.34046" lon="2.60922">
        <ele>609.6132813</ele>
        <time>2014-01-11T08:00:27Z</time>
      </trkpt>
      <trkpt lat="44.34055" lon="2.60911">
        <ele>611.5358887</ele>
        <time>2014-01-11T08:00:32Z</time>
      </trkpt>
      <trkpt lat="44.34067" lon="2.609">
        <ele>612.9777832</ele>
        <time>2014-01-11T08:00:38Z</time>
      </trkpt>
      <trkpt lat="44.34077" lon="2.60891">
        <ele>612.4970703</ele>
        <time>2014-01-11T08:00:43Z</time>
      </trkpt>
      <trkpt lat="44.34089" lon="2.6088">
        <ele>611.5358887</ele>
        <time>2014-01-11T08:00:49Z</time>
      </trkpt>
      <trkpt lat="44.34099" lon="2.6087">
        <ele>611.5358887</ele>
        <time>2014-01-11T08:00:54Z</time>
      </trkpt>
      <trkpt lat="44.34101" lon="2.60868">
        <ele>611.5358887</ele>
        <time>2014-01-11T08:00:55Z</time>
      </trkpt>
      <trkpt lat="44.3411" lon="2.60862">
        <ele>612.0166016</ele>
        <time>2014-01-11T08:00:59Z</time>
      </trkpt>
      <trkpt lat="44.34122" lon="2.60849">
        <ele>612.9777832</ele>
        <time>2014-01-11T08:01:05Z</time>
      </trkpt>
      <trkpt lat="44.34124" lon="2.60848">
        <ele>612.9777832</ele>
        <time>2014-01-11T08:01:06Z</time>
      </trkpt>
      <trkpt lat="44.34134" lon="2.60834">
        <ele>613.9389648</ele>
        <time>2014-01-11T08:01:11Z</time>
      </trkpt>
      <trkpt lat="44.34144" lon="2.60823">
        <ele>613.9389648</ele>
        <time>2014-01-11T08:01:16Z</time>
      </trkpt>
      <trkpt lat="44.34156" lon="2.60809">
        <ele>614.4196777</ele>
        <time>2014-01-11T08:01:22Z</time>
      </trkpt>
      <trkpt lat="44.34166" lon="2.60797">
        <ele>614.4196777</ele>
        <time>2014-01-11T08:01:27Z</time>
      </trkpt>
      <trkpt lat="44.34173" lon="2.60786">
        <ele>614.4196777</ele>
        <time>2014-01-11T08:01:31Z</time>
      </trkpt>
      <trkpt lat="44.34184" lon="2.60766">
        <ele>616.3422852</ele>
        <time>2014-01-11T08:01:38Z</time>
      </trkpt>
      <trkpt lat="44.34188" lon="2.60756">
        <ele>617.3037109</ele>
        <time>2014-01-11T08:01:41Z</time>
      </trkpt>
      <trkpt lat="44.34194" lon="2.60739">
        <ele>618.2648926</ele>
        <time>2014-01-11T08:01:46Z</time>
      </trkpt>
      <trkpt lat="44.34201" lon="2.60724">
        <ele>618.7456055</ele>
        <time>2014-01-11T08:01:51Z</time>
      </trkpt>
      <trkpt lat="44.34204" lon="2.60712">
        <ele>619.2263184</ele>
        <time>2014-01-11T08:01:55Z</time>
      </trkpt>
      <trkpt lat="44.34205" lon="2.60708">
        <ele>619.7070313</ele>
        <time>2014-01-11T08:01:56Z</time>
      </trkpt>
      <trkpt lat="44.34209" lon="2.60682">
        <ele>621.1491699</ele>
        <time>2014-01-11T08:02:03Z</time>
      </trkpt>
      <trkpt lat="44.34209" lon="2.60679">
        <ele>621.1491699</ele>
        <time>2014-01-11T08:02:04Z</time>
      </trkpt>
      <trkpt lat="44.34211" lon="2.60658">
        <ele>622.1103516</ele>
        <time>2014-01-11T08:02:10Z</time>
      </trkpt>
      <trkpt lat="44.34216" lon="2.60642">
        <ele>622.1103516</ele>
        <time>2014-01-11T08:02:15Z</time>
      </trkpt>
      <trkpt lat="44.34219" lon="2.60637">
        <ele>622.1103516</ele>
        <time>2014-01-11T08:02:17Z</time>
      </trkpt>
      <trkpt lat="44.34231" lon="2.6062">
        <ele>621.6296387</ele>
        <time>2014-01-11T08:02:24Z</time>
      </trkpt>
      <trkpt lat="44.34241" lon="2.60605">
        <ele>622.1103516</ele>
        <time>2014-01-11T08:02:30Z</time>
      </trkpt>
      <trkpt lat="44.34253" lon="2.60592">
        <ele>623.0717773</ele>
        <time>2014-01-11T08:02:36Z</time>
      </trkpt>
      <trkpt lat="44.34262" lon="2.60582">
        <ele>624.032959</ele>
        <time>2014-01-11T08:02:41Z</time>
      </trkpt>
      <trkpt lat="44.34273" lon="2.60567">
        <ele>623.5524902</ele>
        <time>2014-01-11T08:02:47Z</time>
      </trkpt>
      <trkpt lat="44.34281" lon="2.60555">
        <ele>623.0717773</ele>
        <time>2014-01-11T08:02:52Z</time>
      </trkpt>
      <trkpt lat="44.34292" lon="2.60541">
        <ele>623.5524902</ele>
        <time>2014-01-11T08:02:58Z</time>
      </trkpt>
      <trkpt lat="44.34299" lon="2.60531">
        <ele>623.5524902</ele>
        <time>2014-01-11T08:03:02Z</time>
      </trkpt>
      <trkpt lat="44.3431" lon="2.60511">
        <ele>624.5136719</ele>
        <time>2014-01-11T08:03:09Z</time>
      </trkpt>
      <trkpt lat="44.34319" lon="2.60493">
        <ele>624.5136719</ele>
        <time>2014-01-11T08:03:15Z</time>
      </trkpt>
      <trkpt lat="44.34327" lon="2.60478">
        <ele>625.4748535</ele>
        <time>2014-01-11T08:03:20Z</time>
      </trkpt>
      <trkpt lat="44.34335" lon="2.6046">
        <ele>626.4362793</ele>
        <time>2014-01-11T08:03:26Z</time>
      </trkpt>
      <trkpt lat="44.34343" lon="2.60446">
        <ele>627.8781738</ele>
        <time>2014-01-11T08:03:31Z</time>
      </trkpt>
      <trkpt lat="44.34351" lon="2.60432">
        <ele>627.8781738</ele>
        <time>2014-01-11T08:03:36Z</time>
      </trkpt>
      <trkpt lat="44.3436" lon="2.60415">
        <ele>628.3588867</ele>
        <time>2014-01-11T08:03:42Z</time>
      </trkpt>
      <trkpt lat="44.34368" lon="2.604">
        <ele>628.8395996</ele>
        <time>2014-01-11T08:03:47Z</time>
      </trkpt>
      <trkpt lat="44.34376" lon="2.60381">
        <ele>628.8395996</ele>
        <time>2014-01-11T08:03:53Z</time>
      </trkpt>
      <trkpt lat="44.34383" lon="2.60365">
        <ele>627.8781738</ele>
        <time>2014-01-11T08:03:58Z</time>
      </trkpt>
      <trkpt lat="44.34391" lon="2.60349">
        <ele>627.8781738</ele>
        <time>2014-01-11T08:04:03Z</time>
      </trkpt>
      <trkpt lat="44.34401" lon="2.6033">
        <ele>626.9169922</ele>
        <time>2014-01-11T08:04:09Z</time>
      </trkpt>
      <trkpt lat="44.34412" lon="2.60313">
        <ele>626.4362793</ele>
        <time>2014-01-11T08:04:15Z</time>
      </trkpt>
      <trkpt lat="44.34423" lon="2.60296">
        <ele>625.9555664</ele>
        <time>2014-01-11T08:04:21Z</time>
      </trkpt>
      <trkpt lat="44.34433" lon="2.60276">
        <ele>627.3977051</ele>
        <time>2014-01-11T08:04:27Z</time>
      </trkpt>
      <trkpt lat="44.3444" lon="2.60264">
        <ele>628.8395996</ele>
        <time>2014-01-11T08:04:31Z</time>
      </trkpt>
      <trkpt lat="44.34451" lon="2.60248">
        <ele>627.8781738</ele>
        <time>2014-01-11T08:04:37Z</time>
      </trkpt>
      <trkpt lat="44.34462" lon="2.60232">
        <ele>628.8395996</ele>
        <time>2014-01-11T08:04:43Z</time>
      </trkpt>
      <trkpt lat="44.34469" lon="2.60227">
        <ele>629.3200684</ele>
        <time>2014-01-11T08:04:46Z</time>
      </trkpt>
      <trkpt lat="44.34477" lon="2.60239">
        <ele>629.8007813</ele>
        <time>2014-01-11T08:04:51Z</time>
      </trkpt>
      <trkpt lat="44.3448" lon="2.60258">
        <ele>631.2429199</ele>
        <time>2014-01-11T08:04:56Z</time>
      </trkpt>
      <trkpt lat="44.34481" lon="2.6028">
        <ele>631.7233887</ele>
        <time>2014-01-11T08:05:02Z</time>
      </trkpt>
      <trkpt lat="44.34482" lon="2.60294">
        <ele>631.2429199</ele>
        <time>2014-01-11T08:05:06Z</time>
      </trkpt>
      <trkpt lat="44.34486" lon="2.60317">
        <ele>630.762207</ele>
        <time>2014-01-11T08:05:12Z</time>
      </trkpt>
      <trkpt lat="44.34489" lon="2.60332">
        <ele>631.2429199</ele>
        <time>2014-01-11T08:05:16Z</time>
      </trkpt>
      <trkpt lat="44.34492" lon="2.6035">
        <ele>631.7233887</ele>
        <time>2014-01-11T08:05:21Z</time>
      </trkpt>
      <trkpt lat="44.34498" lon="2.60373">
        <ele>631.7233887</ele>
        <time>2014-01-11T08:05:27Z</time>
      </trkpt>
      <trkpt lat="44.34502" lon="2.60388">
        <ele>632.2041016</ele>
        <time>2014-01-11T08:05:31Z</time>
      </trkpt>
      <trkpt lat="44.34506" lon="2.60404">
        <ele>632.2041016</ele>
        <time>2014-01-11T08:05:35Z</time>
      </trkpt>
      <trkpt lat="44.34509" lon="2.60428">
        <ele>632.6848145</ele>
        <time>2014-01-11T08:05:41Z</time>
      </trkpt>
      <trkpt lat="44.34511" lon="2.6045">
        <ele>632.6848145</ele>
        <time>2014-01-11T08:05:47Z</time>
      </trkpt>
      <trkpt lat="44.34514" lon="2.60466">
        <ele>632.6848145</ele>
        <time>2014-01-11T08:05:52Z</time>
      </trkpt>
      <trkpt lat="44.34518" lon="2.60488">
        <ele>631.7233887</ele>
        <time>2014-01-11T08:05:58Z</time>
      </trkpt>
      <trkpt lat="44.34523" lon="2.60506">
        <ele>631.2429199</ele>
        <time>2014-01-11T08:06:03Z</time>
      </trkpt>
      <trkpt lat="44.34527" lon="2.60524">
        <ele>632.2041016</ele>
        <time>2014-01-11T08:06:08Z</time>
      </trkpt>
      <trkpt lat="44.34532" lon="2.60546">
        <ele>632.2041016</ele>
        <time>2014-01-11T08:06:14Z</time>
      </trkpt>
      <trkpt lat="44.34536" lon="2.60567">
        <ele>632.2041016</ele>
        <time>2014-01-11T08:06:20Z</time>
      </trkpt>
      <trkpt lat="44.34541" lon="2.60585">
        <ele>632.2041016</ele>
        <time>2014-01-11T08:06:25Z</time>
      </trkpt>
      <trkpt lat="44.34546" lon="2.60607">
        <ele>632.6848145</ele>
        <time>2014-01-11T08:06:31Z</time>
      </trkpt>
      <trkpt lat="44.3455" lon="2.60628">
        <ele>632.2041016</ele>
        <time>2014-01-11T08:06:37Z</time>
      </trkpt>
      <trkpt lat="44.34551" lon="2.60635">
        <ele>632.2041016</ele>
        <time>2014-01-11T08:06:39Z</time>
      </trkpt>
      <trkpt lat="44.34561" lon="2.60637">
        <ele>633.1652832</ele>
        <time>2014-01-11T08:06:44Z</time>
      </trkpt>
      <trkpt lat="44.34573" lon="2.60631">
        <ele>634.126709</ele>
        <time>2014-01-11T08:06:49Z</time>
      </trkpt>
      <trkpt lat="44.34584" lon="2.60625">
        <ele>634.126709</ele>
        <time>2014-01-11T08:06:53Z</time>
      </trkpt>
      <trkpt lat="44.34592" lon="2.60622">
        <ele>634.126709</ele>
        <time>2014-01-11T08:06:56Z</time>
      </trkpt>
      <trkpt lat="44.34611" lon="2.60615">
        <ele>633.1652832</ele>
        <time>2014-01-11T08:07:03Z</time>
      </trkpt>
      <trkpt lat="44.34626" lon="2.60608">
        <ele>634.126709</ele>
        <time>2014-01-11T08:07:09Z</time>
      </trkpt>
      <trkpt lat="44.34637" lon="2.60604">
        <ele>635.5686035</ele>
        <time>2014-01-11T08:07:13Z</time>
      </trkpt>
      <trkpt lat="44.34654" lon="2.60596">
        <ele>637.0107422</ele>
        <time>2014-01-11T08:07:20Z</time>
      </trkpt>
      <trkpt lat="44.34663" lon="2.6059">
        <ele>637.972168</ele>
        <time>2014-01-11T08:07:24Z</time>
      </trkpt>
      <trkpt lat="44.34675" lon="2.60585">
        <ele>637.972168</ele>
        <time>2014-01-11T08:07:29Z</time>
      </trkpt>
      <trkpt lat="44.34691" lon="2.60578">
        <ele>637.972168</ele>
        <time>2014-01-11T08:07:35Z</time>
      </trkpt>
      <trkpt lat="44.34702" lon="2.60572">
        <ele>636.5302734</ele>
        <time>2014-01-11T08:07:39Z</time>
      </trkpt>
      <trkpt lat="44.34717" lon="2.60562">
        <ele>635.5686035</ele>
        <time>2014-01-11T08:07:45Z</time>
      </trkpt>
      <trkpt lat="44.34734" lon="2.60548">
        <ele>634.126709</ele>
        <time>2014-01-11T08:07:52Z</time>
      </trkpt>
      <trkpt lat="44.34746" lon="2.60538">
        <ele>632.2041016</ele>
        <time>2014-01-11T08:07:57Z</time>
      </trkpt>
      <trkpt lat="44.34761" lon="2.60524">
        <ele>631.2429199</ele>
        <time>2014-01-11T08:08:03Z</time>
      </trkpt>
      <trkpt lat="44.34763" lon="2.60521">
        <ele>630.762207</ele>
        <time>2014-01-11T08:08:04Z</time>
      </trkpt>
      <trkpt lat="44.34778" lon="2.60516">
        <ele>628.8395996</ele>
        <time>2014-01-11T08:08:09Z</time>
      </trkpt>
      <trkpt lat="44.34784" lon="2.60516">
        <ele>628.3588867</ele>
        <time>2014-01-11T08:08:11Z</time>
      </trkpt>
      <trkpt lat="44.34802" lon="2.60515">
        <ele>627.8781738</ele>
        <time>2014-01-11T08:08:17Z</time>
      </trkpt>
      <trkpt lat="44.3481" lon="2.60514">
        <ele>627.8781738</ele>
        <time>2014-01-11T08:08:20Z</time>
      </trkpt>
      <trkpt lat="44.34823" lon="2.60514">
        <ele>626.9169922</ele>
        <time>2014-01-11T08:08:25Z</time>
      </trkpt>
      <trkpt lat="44.34828" lon="2.60514">
        <ele>626.4362793</ele>
        <time>2014-01-11T08:08:27Z</time>
      </trkpt>
      <trkpt lat="44.34841" lon="2.60523">
        <ele>624.5136719</ele>
        <time>2014-01-11T08:08:32Z</time>
      </trkpt>
      <trkpt lat="44.34852" lon="2.60521">
        <ele>622.1103516</ele>
        <time>2014-01-11T08:08:36Z</time>
      </trkpt>
      <trkpt lat="44.34855" lon="2.60518">
        <ele>621.6296387</ele>
        <time>2014-01-11T08:08:37Z</time>
      </trkpt>
      <trkpt lat="44.34865" lon="2.605">
        <ele>618.2648926</ele>
        <time>2014-01-11T08:08:43Z</time>
      </trkpt>
      <trkpt lat="44.34868" lon="2.60493">
        <ele>617.7841797</ele>
        <time>2014-01-11T08:08:45Z</time>
      </trkpt>
      <trkpt lat="44.34877" lon="2.60483">
        <ele>614.9003906</ele>
        <time>2014-01-11T08:08:49Z</time>
      </trkpt>
      <trkpt lat="44.34894" lon="2.60474">
        <ele>608.6518555</ele>
        <time>2014-01-11T08:08:55Z</time>
      </trkpt>
      <trkpt lat="44.34903" lon="2.6047">
        <ele>606.729248</ele>
        <time>2014-01-11T08:08:58Z</time>
      </trkpt>
      <trkpt lat="44.3492" lon="2.60466">
        <ele>603.364502</ele>
        <time>2014-01-11T08:09:03Z</time>
      </trkpt>
      <trkpt lat="44.3493" lon="2.6046">
        <ele>601.9226074</ele>
        <time>2014-01-11T08:09:07Z</time>
      </trkpt>
      <trkpt lat="44.34939" lon="2.60458">
        <ele>604.3261719</ele>
        <time>2014-01-11T08:09:11Z</time>
      </trkpt>
      <trkpt lat="44.34946" lon="2.60458">
        <ele>605.2873535</ele>
        <time>2014-01-11T08:09:14Z</time>
      </trkpt>
      <trkpt lat="44.34954" lon="2.6046">
        <ele>605.2873535</ele>
        <time>2014-01-11T08:09:18Z</time>
      </trkpt>
      <trkpt lat="44.34962" lon="2.60461">
        <ele>606.2485352</ele>
        <time>2014-01-11T08:09:21Z</time>
      </trkpt>
      <trkpt lat="44.34975" lon="2.60462">
        <ele>606.729248</ele>
        <time>2014-01-11T08:09:27Z</time>
      </trkpt>
      <trkpt lat="44.34985" lon="2.60464">
        <ele>608.1713867</ele>
        <time>2014-01-11T08:09:31Z</time>
      </trkpt>
      <trkpt lat="44.34997" lon="2.60458">
        <ele>608.6518555</ele>
        <time>2014-01-11T08:09:36Z</time>
      </trkpt>
      <trkpt lat="44.35014" lon="2.60445">
        <ele>609.6132813</ele>
        <time>2014-01-11T08:09:44Z</time>
      </trkpt>
      <trkpt lat="44.35025" lon="2.60438">
        <ele>610.09375</ele>
        <time>2014-01-11T08:09:49Z</time>
      </trkpt>
      <trkpt lat="44.35031" lon="2.60437">
        <ele>611.0551758</ele>
        <time>2014-01-11T08:09:52Z</time>
      </trkpt>
      <trkpt lat="44.3504" lon="2.60437">
        <ele>612.0166016</ele>
        <time>2014-01-11T08:09:56Z</time>
      </trkpt>
      <trkpt lat="44.35051" lon="2.60438">
        <ele>612.4970703</ele>
        <time>2014-01-11T08:10:01Z</time>
      </trkpt>
      <trkpt lat="44.35067" lon="2.60441">
        <ele>614.4196777</ele>
        <time>2014-01-11T08:10:08Z</time>
      </trkpt>
      <trkpt lat="44.35082" lon="2.60441">
        <ele>616.822998</ele>
        <time>2014-01-11T08:10:14Z</time>
      </trkpt>
      <trkpt lat="44.35099" lon="2.60437">
        <ele>620.1877441</ele>
        <time>2014-01-11T08:10:21Z</time>
      </trkpt>
      <trkpt lat="44.35109" lon="2.60434">
        <ele>621.1491699</ele>
        <time>2014-01-11T08:10:25Z</time>
      </trkpt>
      <trkpt lat="44.35125" lon="2.60426">
        <ele>622.1103516</ele>
        <time>2014-01-11T08:10:32Z</time>
      </trkpt>
      <trkpt lat="44.35127" lon="2.60424">
        <ele>622.1103516</ele>
        <time>2014-01-11T08:10:33Z</time>
      </trkpt>
      <trkpt lat="44.35142" lon="2.60416">
        <ele>621.1491699</ele>
        <time>2014-01-11T08:10:39Z</time>
      </trkpt>
      <trkpt lat="44.35152" lon="2.60411">
        <ele>621.1491699</ele>
        <time>2014-01-11T08:10:43Z</time>
      </trkpt>
      <trkpt lat="44.35167" lon="2.60404">
        <ele>620.1877441</ele>
        <time>2014-01-11T08:10:49Z</time>
      </trkpt>
      <trkpt lat="44.35182" lon="2.60397">
        <ele>618.7456055</ele>
        <time>2014-01-11T08:10:55Z</time>
      </trkpt>
      <trkpt lat="44.35198" lon="2.60387">
        <ele>616.3422852</ele>
        <time>2014-01-11T08:11:01Z</time>
      </trkpt>
      <trkpt lat="44.3521" lon="2.60378">
        <ele>614.9003906</ele>
        <time>2014-01-11T08:11:06Z</time>
      </trkpt>
      <trkpt lat="44.35223" lon="2.6037">
        <ele>613.4584961</ele>
        <time>2014-01-11T08:11:11Z</time>
      </trkpt>
      <trkpt lat="44.35238" lon="2.60359">
        <ele>612.0166016</ele>
        <time>2014-01-11T08:11:17Z</time>
      </trkpt>
      <trkpt lat="44.3525" lon="2.60349">
        <ele>612.4970703</ele>
        <time>2014-01-11T08:11:22Z</time>
      </trkpt>
      <trkpt lat="44.35261" lon="2.60339">
        <ele>612.0166016</ele>
        <time>2014-01-11T08:11:27Z</time>
      </trkpt>
      <trkpt lat="44.35272" lon="2.60329">
        <ele>612.4970703</ele>
        <time>2014-01-11T08:11:32Z</time>
      </trkpt>
      <trkpt lat="44.35283" lon="2.60317">
        <ele>612.0166016</ele>
        <time>2014-01-11T08:11:37Z</time>
      </trkpt>
      <trkpt lat="44.35293" lon="2.60306">
        <ele>611.5358887</ele>
        <time>2014-01-11T08:11:42Z</time>
      </trkpt>
      <trkpt lat="44.35303" lon="2.60293">
        <ele>611.5358887</ele>
        <time>2014-01-11T08:11:47Z</time>
      </trkpt>
      <trkpt lat="44.35316" lon="2.60273">
        <ele>612.4970703</ele>
        <time>2014-01-11T08:11:54Z</time>
      </trkpt>
      <trkpt lat="44.35323" lon="2.60251">
        <ele>612.9777832</ele>
        <time>2014-01-11T08:12:00Z</time>
      </trkpt>
      <trkpt lat="44.35329" lon="2.60234">
        <ele>613.9389648</ele>
        <time>2014-01-11T08:12:05Z</time>
      </trkpt>
      <trkpt lat="44.35334" lon="2.60221">
        <ele>613.4584961</ele>
        <time>2014-01-11T08:12:09Z</time>
      </trkpt>
      <trkpt lat="44.35341" lon="2.60198">
        <ele>612.4970703</ele>
        <time>2014-01-11T08:12:15Z</time>
      </trkpt>
      <trkpt lat="44.35345" lon="2.60179">
        <ele>611.5358887</ele>
        <time>2014-01-11T08:12:20Z</time>
      </trkpt>
      <trkpt lat="44.35346" lon="2.60155">
        <ele>612.4970703</ele>
        <time>2014-01-11T08:12:26Z</time>
      </trkpt>
      <trkpt lat="44.35345" lon="2.60136">
        <ele>612.9777832</ele>
        <time>2014-01-11T08:12:31Z</time>
      </trkpt>
      <trkpt lat="44.35346" lon="2.60116">
        <ele>612.0166016</ele>
        <time>2014-01-11T08:12:36Z</time>
      </trkpt>
      <trkpt lat="44.35347" lon="2.60096">
        <ele>610.5744629</ele>
        <time>2014-01-11T08:12:41Z</time>
      </trkpt>
      <trkpt lat="44.35347" lon="2.6008">
        <ele>609.1325684</ele>
        <time>2014-01-11T08:12:45Z</time>
      </trkpt>
      <trkpt lat="44.35346" lon="2.60061">
        <ele>606.729248</ele>
        <time>2014-01-11T08:12:50Z</time>
      </trkpt>
      <trkpt lat="44.35351" lon="2.60039">
        <ele>603.8452148</ele>
        <time>2014-01-11T08:12:56Z</time>
      </trkpt>
      <trkpt lat="44.35361" lon="2.6002">
        <ele>601.4418945</ele>
        <time>2014-01-11T08:13:02Z</time>
      </trkpt>
      <trkpt lat="44.35374" lon="2.60001">
        <ele>598.0773926</ele>
        <time>2014-01-11T08:13:09Z</time>
      </trkpt>
      <trkpt lat="44.35384" lon="2.59989">
        <ele>595.1933594</ele>
        <time>2014-01-11T08:13:14Z</time>
      </trkpt>
      <trkpt lat="44.35395" lon="2.59973">
        <ele>590.8674316</ele>
        <time>2014-01-11T08:13:20Z</time>
      </trkpt>
      <trkpt lat="44.35401" lon="2.59969">
        <ele>590.3869629</ele>
        <time>2014-01-11T08:13:22Z</time>
      </trkpt>
      <trkpt lat="44.35414" lon="2.59953">
        <ele>587.0219727</ele>
        <time>2014-01-11T08:13:28Z</time>
      </trkpt>
      <trkpt lat="44.35426" lon="2.59942">
        <ele>584.6188965</ele>
        <time>2014-01-11T08:13:33Z</time>
      </trkpt>
      <trkpt lat="44.35438" lon="2.5993">
        <ele>583.1767578</ele>
        <time>2014-01-11T08:13:38Z</time>
      </trkpt>
      <trkpt lat="44.35452" lon="2.59918">
        <ele>580.2929688</ele>
        <time>2014-01-11T08:13:44Z</time>
      </trkpt>
      <trkpt lat="44.35464" lon="2.59905">
        <ele>577.4091797</ele>
        <time>2014-01-11T08:13:50Z</time>
      </trkpt>
      <trkpt lat="44.35474" lon="2.59891">
        <ele>575.967041</ele>
        <time>2014-01-11T08:13:55Z</time>
      </trkpt>
      <trkpt lat="44.35483" lon="2.59873">
        <ele>572.6025391</ele>
        <time>2014-01-11T08:14:01Z</time>
      </trkpt>
      <trkpt lat="44.35492" lon="2.59854">
        <ele>570.6796875</ele>
        <time>2014-01-11T08:14:07Z</time>
      </trkpt>
      <trkpt lat="44.355" lon="2.59839">
        <ele>568.7570801</ele>
        <time>2014-01-11T08:14:12Z</time>
      </trkpt>
      <trkpt lat="44.3551" lon="2.5983">
        <ele>567.3151855</ele>
        <time>2014-01-11T08:14:16Z</time>
      </trkpt>
      <trkpt lat="44.35523" lon="2.59823">
        <ele>564.9118652</ele>
        <time>2014-01-11T08:14:21Z</time>
      </trkpt>
      <trkpt lat="44.35526" lon="2.59821">
        <ele>564.4311523</ele>
        <time>2014-01-11T08:14:22Z</time>
      </trkpt>
      <trkpt lat="44.35536" lon="2.59815">
        <ele>562.0280762</ele>
        <time>2014-01-11T08:14:26Z</time>
      </trkpt>
      <trkpt lat="44.35548" lon="2.59808">
        <ele>560.5859375</ele>
        <time>2014-01-11T08:14:30Z</time>
      </trkpt>
      <trkpt lat="44.35565" lon="2.59796">
        <ele>556.2600098</ele>
        <time>2014-01-11T08:14:37Z</time>
      </trkpt>
      <trkpt lat="44.35576" lon="2.59783">
        <ele>555.7792969</ele>
        <time>2014-01-11T08:14:42Z</time>
      </trkpt>
      <trkpt lat="44.35586" lon="2.59771">
        <ele>553.8566895</ele>
        <time>2014-01-11T08:14:47Z</time>
      </trkpt>
      <trkpt lat="44.35599" lon="2.59764">
        <ele>550.9726563</ele>
        <time>2014-01-11T08:14:51Z</time>
      </trkpt>
      <trkpt lat="44.35611" lon="2.59756">
        <ele>547.1274414</ele>
        <time>2014-01-11T08:14:55Z</time>
      </trkpt>
      <trkpt lat="44.35623" lon="2.59743">
        <ele>542.3209229</ele>
        <time>2014-01-11T08:15:00Z</time>
      </trkpt>
      <trkpt lat="44.35635" lon="2.59731">
        <ele>539.4368896</ele>
        <time>2014-01-11T08:15:05Z</time>
      </trkpt>
      <trkpt lat="44.35641" lon="2.5973">
        <ele>537.9949951</ele>
        <time>2014-01-11T08:15:07Z</time>
      </trkpt>
      <trkpt lat="44.3565" lon="2.59737">
        <ele>537.9949951</ele>
        <time>2014-01-11T08:15:11Z</time>
      </trkpt>
      <trkpt lat="44.35654" lon="2.59749">
        <ele>539.9176025</ele>
        <time>2014-01-11T08:15:15Z</time>
      </trkpt>
      <trkpt lat="44.35662" lon="2.59759">
        <ele>541.84021</ele>
        <time>2014-01-11T08:15:20Z</time>
      </trkpt>
      <trkpt lat="44.35671" lon="2.59757">
        <ele>541.84021</ele>
        <time>2014-01-11T08:15:24Z</time>
      </trkpt>
      <trkpt lat="44.35682" lon="2.59744">
        <ele>541.3594971</ele>
        <time>2014-01-11T08:15:29Z</time>
      </trkpt>
      <trkpt lat="44.35684" lon="2.59742">
        <ele>541.84021</ele>
        <time>2014-01-11T08:15:30Z</time>
      </trkpt>
      <trkpt lat="44.35693" lon="2.59726">
        <ele>540.3983154</ele>
        <time>2014-01-11T08:15:35Z</time>
      </trkpt>
      <trkpt lat="44.35701" lon="2.59713">
        <ele>539.9176025</ele>
        <time>2014-01-11T08:15:39Z</time>
      </trkpt>
      <trkpt lat="44.35711" lon="2.597">
        <ele>538.9562988</ele>
        <time>2014-01-11T08:15:44Z</time>
      </trkpt>
      <trkpt lat="44.35723" lon="2.59688">
        <ele>537.9949951</ele>
        <time>2014-01-11T08:15:49Z</time>
      </trkpt>
      <trkpt lat="44.35727" lon="2.59683">
        <ele>537.9949951</ele>
        <time>2014-01-11T08:15:51Z</time>
      </trkpt>
      <trkpt lat="44.35739" lon="2.59666">
        <ele>537.0336914</ele>
        <time>2014-01-11T08:15:57Z</time>
      </trkpt>
      <trkpt lat="44.35752" lon="2.59651">
        <ele>536.5531006</ele>
        <time>2014-01-11T08:16:03Z</time>
      </trkpt>
      <trkpt lat="44.35762" lon="2.59636">
        <ele>535.1109619</ele>
        <time>2014-01-11T08:16:08Z</time>
      </trkpt>
      <trkpt lat="44.3577" lon="2.59624">
        <ele>534.1496582</ele>
        <time>2014-01-11T08:16:12Z</time>
      </trkpt>
      <trkpt lat="44.3577" lon="2.59594">
        <ele>533.1883545</ele>
        <time>2014-01-11T08:16:19Z</time>
      </trkpt>
      <trkpt lat="44.35771" lon="2.59575">
        <ele>532.7077637</ele>
        <time>2014-01-11T08:16:24Z</time>
      </trkpt>
      <trkpt lat="44.35773" lon="2.59555">
        <ele>532.7077637</ele>
        <time>2014-01-11T08:16:29Z</time>
      </trkpt>
      <trkpt lat="44.35776" lon="2.59527">
        <ele>532.2270508</ele>
        <time>2014-01-11T08:16:36Z</time>
      </trkpt>
      <trkpt lat="44.35779" lon="2.59509">
        <ele>532.7077637</ele>
        <time>2014-01-11T08:16:41Z</time>
      </trkpt>
      <trkpt lat="44.3578" lon="2.59494">
        <ele>532.7077637</ele>
        <time>2014-01-11T08:16:45Z</time>
      </trkpt>
      <trkpt lat="44.35782" lon="2.5947">
        <ele>532.2270508</ele>
        <time>2014-01-11T08:16:51Z</time>
      </trkpt>
      <trkpt lat="44.35783" lon="2.59447">
        <ele>531.7463379</ele>
        <time>2014-01-11T08:16:57Z</time>
      </trkpt>
      <trkpt lat="44.35776" lon="2.59427">
        <ele>531.2657471</ele>
        <time>2014-01-11T08:17:03Z</time>
      </trkpt>
      <trkpt lat="44.35762" lon="2.59412">
        <ele>531.7463379</ele>
        <time>2014-01-11T08:17:09Z</time>
      </trkpt>
      <trkpt lat="44.35749" lon="2.59398">
        <ele>532.7077637</ele>
        <time>2014-01-11T08:17:15Z</time>
      </trkpt>
      <trkpt lat="44.35743" lon="2.59386">
        <ele>532.7077637</ele>
        <time>2014-01-11T08:17:20Z</time>
      </trkpt>
      <trkpt lat="44.35738" lon="2.59378">
        <ele>533.1883545</ele>
        <time>2014-01-11T08:17:23Z</time>
      </trkpt>
      <trkpt lat="44.3573" lon="2.59362">
        <ele>533.1883545</ele>
        <time>2014-01-11T08:17:28Z</time>
      </trkpt>
      <trkpt lat="44.3572" lon="2.59343">
        <ele>533.6689453</ele>
        <time>2014-01-11T08:17:34Z</time>
      </trkpt>
      <trkpt lat="44.35714" lon="2.59326">
        <ele>533.6689453</ele>
        <time>2014-01-11T08:17:39Z</time>
      </trkpt>
      <trkpt lat="44.3571" lon="2.59308">
        <ele>534.1496582</ele>
        <time>2014-01-11T08:17:44Z</time>
      </trkpt>
      <trkpt lat="44.35707" lon="2.59293">
        <ele>533.6689453</ele>
        <time>2014-01-11T08:17:49Z</time>
      </trkpt>
      <trkpt lat="44.35702" lon="2.59282">
        <ele>534.1496582</ele>
        <time>2014-01-11T08:17:52Z</time>
      </trkpt>
      <trkpt lat="44.35695" lon="2.59262">
        <ele>534.6303711</ele>
        <time>2014-01-11T08:17:58Z</time>
      </trkpt>
      <trkpt lat="44.3568" lon="2.5924">
        <ele>535.5915527</ele>
        <time>2014-01-11T08:18:06Z</time>
      </trkpt>
      <trkpt lat="44.35669" lon="2.59222">
        <ele>536.0723877</ele>
        <time>2014-01-11T08:18:12Z</time>
      </trkpt>
      <trkpt lat="44.35658" lon="2.59205">
        <ele>535.5915527</ele>
        <time>2014-01-11T08:18:18Z</time>
      </trkpt>
      <trkpt lat="44.35647" lon="2.59187">
        <ele>535.1109619</ele>
        <time>2014-01-11T08:18:24Z</time>
      </trkpt>
      <trkpt lat="44.35639" lon="2.59171">
        <ele>534.6303711</ele>
        <time>2014-01-11T08:18:29Z</time>
      </trkpt>
      <trkpt lat="44.3563" lon="2.59152">
        <ele>534.6303711</ele>
        <time>2014-01-11T08:18:35Z</time>
      </trkpt>
      <trkpt lat="44.35619" lon="2.59131">
        <ele>534.6303711</ele>
        <time>2014-01-11T08:18:42Z</time>
      </trkpt>
      <trkpt lat="44.35609" lon="2.59119">
        <ele>534.6303711</ele>
        <time>2014-01-11T08:18:47Z</time>
      </trkpt>
      <trkpt lat="44.35593" lon="2.59103">
        <ele>534.6303711</ele>
        <time>2014-01-11T08:18:54Z</time>
      </trkpt>
      <trkpt lat="44.35575" lon="2.59087">
        <ele>535.5915527</ele>
        <time>2014-01-11T08:19:02Z</time>
      </trkpt>
      <trkpt lat="44.35562" lon="2.59087">
        <ele>536.0723877</ele>
        <time>2014-01-11T08:19:07Z</time>
      </trkpt>
      <trkpt lat="44.35548" lon="2.5909">
        <ele>535.5915527</ele>
        <time>2014-01-11T08:19:12Z</time>
      </trkpt>
      <trkpt lat="44.35536" lon="2.59096">
        <ele>535.1109619</ele>
        <time>2014-01-11T08:19:17Z</time>
      </trkpt>
      <trkpt lat="44.3552" lon="2.59099">
        <ele>533.1883545</ele>
        <time>2014-01-11T08:19:23Z</time>
      </trkpt>
      <trkpt lat="44.35508" lon="2.59096">
        <ele>532.2270508</ele>
        <time>2014-01-11T08:19:27Z</time>
      </trkpt>
      <trkpt lat="44.35493" lon="2.59102">
        <ele>530.7851563</ele>
        <time>2014-01-11T08:19:33Z</time>
      </trkpt>
      <trkpt lat="44.35484" lon="2.59111">
        <ele>528.3818359</ele>
        <time>2014-01-11T08:19:37Z</time>
      </trkpt>
      <trkpt lat="44.35473" lon="2.5913">
        <ele>528.3818359</ele>
        <time>2014-01-11T08:19:43Z</time>
      </trkpt>
      <trkpt lat="44.35463" lon="2.59145">
        <ele>528.3818359</ele>
        <time>2014-01-11T08:19:48Z</time>
      </trkpt>
      <trkpt lat="44.35452" lon="2.59159">
        <ele>527.901001</ele>
        <time>2014-01-11T08:19:54Z</time>
      </trkpt>
      <trkpt lat="44.35439" lon="2.5917">
        <ele>526.4591064</ele>
        <time>2014-01-11T08:20:00Z</time>
      </trkpt>
      <trkpt lat="44.35428" lon="2.59178">
        <ele>523.0946045</ele>
        <time>2014-01-11T08:20:05Z</time>
      </trkpt>
      <trkpt lat="44.35418" lon="2.59188">
        <ele>520.2105713</ele>
        <time>2014-01-11T08:20:10Z</time>
      </trkpt>
      <trkpt lat="44.35405" lon="2.59198">
        <ele>516.8459473</ele>
        <time>2014-01-11T08:20:16Z</time>
      </trkpt>
      <trkpt lat="44.35401" lon="2.59203">
        <ele>517.3266602</ele>
        <time>2014-01-11T08:20:18Z</time>
      </trkpt>
      <trkpt lat="44.35387" lon="2.5922">
        <ele>518.2878418</ele>
        <time>2014-01-11T08:20:24Z</time>
      </trkpt>
      <trkpt lat="44.35375" lon="2.59234">
        <ele>516.8459473</ele>
        <time>2014-01-11T08:20:29Z</time>
      </trkpt>
      <trkpt lat="44.35362" lon="2.59248">
        <ele>516.8459473</ele>
        <time>2014-01-11T08:20:35Z</time>
      </trkpt>
      <trkpt lat="44.35351" lon="2.59262">
        <ele>517.3266602</ele>
        <time>2014-01-11T08:20:40Z</time>
      </trkpt>
      <trkpt lat="44.35341" lon="2.59276">
        <ele>517.807251</ele>
        <time>2014-01-11T08:20:45Z</time>
      </trkpt>
      <trkpt lat="44.35332" lon="2.59292">
        <ele>523.5751953</ele>
        <time>2014-01-11T08:20:50Z</time>
      </trkpt>
      <trkpt lat="44.3532" lon="2.59312">
        <ele>526.4591064</ele>
        <time>2014-01-11T08:20:57Z</time>
      </trkpt>
      <trkpt lat="44.35314" lon="2.59327">
        <ele>526.9398193</ele>
        <time>2014-01-11T08:21:01Z</time>
      </trkpt>
      <trkpt lat="44.35307" lon="2.59346">
        <ele>527.901001</ele>
        <time>2014-01-11T08:21:06Z</time>
      </trkpt>
      <trkpt lat="44.35299" lon="2.59362">
        <ele>529.3431396</ele>
        <time>2014-01-11T08:21:11Z</time>
      </trkpt>
      <trkpt lat="44.35287" lon="2.59382">
        <ele>526.4591064</ele>
        <time>2014-01-11T08:21:18Z</time>
      </trkpt>
      <trkpt lat="44.35276" lon="2.59394">
        <ele>525.0172119</ele>
        <time>2014-01-11T08:21:24Z</time>
      </trkpt>
      <trkpt lat="44.35261" lon="2.59409">
        <ele>523.0946045</ele>
        <time>2014-01-11T08:21:31Z</time>
      </trkpt>
      <trkpt lat="44.35259" lon="2.59411">
        <ele>523.0946045</ele>
        <time>2014-01-11T08:21:32Z</time>
      </trkpt>
      <trkpt lat="44.35247" lon="2.59423">
        <ele>520.2105713</ele>
        <time>2014-01-11T08:21:39Z</time>
      </trkpt>
      <trkpt lat="44.35237" lon="2.59441">
        <ele>521.6525879</ele>
        <time>2014-01-11T08:21:44Z</time>
      </trkpt>
      <trkpt lat="44.3523" lon="2.59452">
        <ele>522.6138916</ele>
        <time>2014-01-11T08:21:48Z</time>
      </trkpt>
      <trkpt lat="44.3522" lon="2.59473">
        <ele>525.0172119</ele>
        <time>2014-01-11T08:21:54Z</time>
      </trkpt>
      <trkpt lat="44.35211" lon="2.59491">
        <ele>525.4978027</ele>
        <time>2014-01-11T08:22:00Z</time>
      </trkpt>
      <trkpt lat="44.35202" lon="2.59505">
        <ele>525.0172119</ele>
        <time>2014-01-11T08:22:05Z</time>
      </trkpt>
      <trkpt lat="44.35195" lon="2.5952">
        <ele>524.536499</ele>
        <time>2014-01-11T08:22:09Z</time>
      </trkpt>
      <trkpt lat="44.35184" lon="2.59537">
        <ele>524.536499</ele>
        <time>2014-01-11T08:22:15Z</time>
      </trkpt>
      <trkpt lat="44.35174" lon="2.59554">
        <ele>524.0557861</ele>
        <time>2014-01-11T08:22:20Z</time>
      </trkpt>
      <trkpt lat="44.35167" lon="2.59566">
        <ele>525.0172119</ele>
        <time>2014-01-11T08:22:24Z</time>
      </trkpt>
      <trkpt lat="44.35157" lon="2.59583">
        <ele>525.4978027</ele>
        <time>2014-01-11T08:22:30Z</time>
      </trkpt>
      <trkpt lat="44.35145" lon="2.59601">
        <ele>526.9398193</ele>
        <time>2014-01-11T08:22:36Z</time>
      </trkpt>
      <trkpt lat="44.35135" lon="2.59619">
        <ele>526.9398193</ele>
        <time>2014-01-11T08:22:42Z</time>
      </trkpt>
      <trkpt lat="44.35124" lon="2.59637">
        <ele>526.4591064</ele>
        <time>2014-01-11T08:22:48Z</time>
      </trkpt>
      <trkpt lat="44.35114" lon="2.59652">
        <ele>526.9398193</ele>
        <time>2014-01-11T08:22:53Z</time>
      </trkpt>
      <trkpt lat="44.35101" lon="2.59666">
        <ele>526.9398193</ele>
        <time>2014-01-11T08:22:59Z</time>
      </trkpt>
      <trkpt lat="44.35088" lon="2.59674">
        <ele>526.4591064</ele>
        <time>2014-01-11T08:23:04Z</time>
      </trkpt>
      <trkpt lat="44.35079" lon="2.59679">
        <ele>525.9783936</ele>
        <time>2014-01-11T08:23:08Z</time>
      </trkpt>
      <trkpt lat="44.3506" lon="2.59686">
        <ele>528.3818359</ele>
        <time>2014-01-11T08:23:15Z</time>
      </trkpt>
      <trkpt lat="44.35049" lon="2.59687">
        <ele>529.3431396</ele>
        <time>2014-01-11T08:23:19Z</time>
      </trkpt>
      <trkpt lat="44.35038" lon="2.59683">
        <ele>530.3044434</ele>
        <time>2014-01-11T08:23:23Z</time>
      </trkpt>
      <trkpt lat="44.35024" lon="2.59672">
        <ele>531.7463379</ele>
        <time>2014-01-11T08:23:29Z</time>
      </trkpt>
      <trkpt lat="44.35016" lon="2.59658">
        <ele>532.7077637</ele>
        <time>2014-01-11T08:23:34Z</time>
      </trkpt>
      <trkpt lat="44.35012" lon="2.59642">
        <ele>534.1496582</ele>
        <time>2014-01-11T08:23:39Z</time>
      </trkpt>
      <trkpt lat="44.3501" lon="2.59618">
        <ele>534.6303711</ele>
        <time>2014-01-11T08:23:45Z</time>
      </trkpt>
      <trkpt lat="44.3501" lon="2.59599">
        <ele>534.6303711</ele>
        <time>2014-01-11T08:23:50Z</time>
      </trkpt>
      <trkpt lat="44.35008" lon="2.59578">
        <ele>534.1496582</ele>
        <time>2014-01-11T08:23:56Z</time>
      </trkpt>
      <trkpt lat="44.35003" lon="2.59563">
        <ele>533.1883545</ele>
        <time>2014-01-11T08:24:00Z</time>
      </trkpt>
      <trkpt lat="44.34997" lon="2.59544">
        <ele>531.7463379</ele>
        <time>2014-01-11T08:24:05Z</time>
      </trkpt>
      <trkpt lat="44.34995" lon="2.59525">
        <ele>532.2270508</ele>
        <time>2014-01-11T08:24:10Z</time>
      </trkpt>
      <trkpt lat="44.34992" lon="2.59502">
        <ele>530.3044434</ele>
        <time>2014-01-11T08:24:16Z</time>
      </trkpt>
      <trkpt lat="44.34989" lon="2.59487">
        <ele>529.8237305</ele>
        <time>2014-01-11T08:24:20Z</time>
      </trkpt>
      <trkpt lat="44.34985" lon="2.59464">
        <ele>530.3044434</ele>
        <time>2014-01-11T08:24:26Z</time>
      </trkpt>
      <trkpt lat="44.34982" lon="2.59444">
        <ele>529.8237305</ele>
        <time>2014-01-11T08:24:31Z</time>
      </trkpt>
      <trkpt lat="44.34978" lon="2.59426">
        <ele>530.3044434</ele>
        <time>2014-01-11T08:24:36Z</time>
      </trkpt>
      <trkpt lat="44.34976" lon="2.59407">
        <ele>530.3044434</ele>
        <time>2014-01-11T08:24:41Z</time>
      </trkpt>
      <trkpt lat="44.34973" lon="2.59382">
        <ele>530.3044434</ele>
        <time>2014-01-11T08:24:47Z</time>
      </trkpt>
      <trkpt lat="44.34973" lon="2.59366">
        <ele>530.3044434</ele>
        <time>2014-01-11T08:24:51Z</time>
      </trkpt>
      <trkpt lat="44.34972" lon="2.59347">
        <ele>530.7851563</ele>
        <time>2014-01-11T08:24:56Z</time>
      </trkpt>
      <trkpt lat="44.34971" lon="2.59335">
        <ele>531.2657471</ele>
        <time>2014-01-11T08:24:59Z</time>
      </trkpt>
      <trkpt lat="44.34977" lon="2.59314">
        <ele>530.3044434</ele>
        <time>2014-01-11T08:25:04Z</time>
      </trkpt>
      <trkpt lat="44.34982" lon="2.59296">
        <ele>531.7463379</ele>
        <time>2014-01-11T08:25:09Z</time>
      </trkpt>
      <trkpt lat="44.34986" lon="2.59277">
        <ele>531.7463379</ele>
        <time>2014-01-11T08:25:14Z</time>
      </trkpt>
      <trkpt lat="44.3499" lon="2.59268">
        <ele>531.2657471</ele>
        <time>2014-01-11T08:25:17Z</time>
      </trkpt>
      <trkpt lat="44.34994" lon="2.59254">
        <ele>529.3431396</ele>
        <time>2014-01-11T08:25:21Z</time>
      </trkpt>
      <trkpt lat="44.34999" lon="2.59237">
        <ele>527.901001</ele>
        <time>2014-01-11T08:25:26Z</time>
      </trkpt>
      <trkpt lat="44.34999" lon="2.59233">
        <ele>528.3818359</ele>
        <time>2014-01-11T08:25:27Z</time>
      </trkpt>
      <trkpt lat="44.35007" lon="2.59215">
        <ele>526.4591064</ele>
        <time>2014-01-11T08:25:33Z</time>
      </trkpt>
      <trkpt lat="44.35015" lon="2.59204">
        <ele>527.901001</ele>
        <time>2014-01-11T08:25:37Z</time>
      </trkpt>
      <trkpt lat="44.35023" lon="2.5919">
        <ele>530.7851563</ele>
        <time>2014-01-11T08:25:42Z</time>
      </trkpt>
      <trkpt lat="44.35035" lon="2.59173">
        <ele>531.2657471</ele>
        <time>2014-01-11T08:25:48Z</time>
      </trkpt>
      <trkpt lat="44.35037" lon="2.59171">
        <ele>531.2657471</ele>
        <time>2014-01-11T08:25:49Z</time>
      </trkpt>
      <trkpt lat="44.35042" lon="2.59158">
        <ele>530.7851563</ele>
        <time>2014-01-11T08:25:53Z</time>
      </trkpt>
      <trkpt lat="44.35053" lon="2.59139">
        <ele>532.2270508</ele>
        <time>2014-01-11T08:25:59Z</time>
      </trkpt>
      <trkpt lat="44.35061" lon="2.59123">
        <ele>533.6689453</ele>
        <time>2014-01-11T08:26:04Z</time>
      </trkpt>
      <trkpt lat="44.35063" lon="2.5912">
        <ele>533.6689453</ele>
        <time>2014-01-11T08:26:05Z</time>
      </trkpt>
      <trkpt lat="44.35072" lon="2.59111">
        <ele>531.2657471</ele>
        <time>2014-01-11T08:26:09Z</time>
      </trkpt>
      <trkpt lat="44.35084" lon="2.59101">
        <ele>530.3044434</ele>
        <time>2014-01-11T08:26:14Z</time>
      </trkpt>
      <trkpt lat="44.35097" lon="2.5908">
        <ele>532.2270508</ele>
        <time>2014-01-11T08:26:21Z</time>
      </trkpt>
      <trkpt lat="44.35111" lon="2.59059">
        <ele>532.2270508</ele>
        <time>2014-01-11T08:26:28Z</time>
      </trkpt>
      <trkpt lat="44.35121" lon="2.59046">
        <ele>531.2657471</ele>
        <time>2014-01-11T08:26:33Z</time>
      </trkpt>
      <trkpt lat="44.35132" lon="2.59032">
        <ele>533.1883545</ele>
        <time>2014-01-11T08:26:38Z</time>
      </trkpt>
      <trkpt lat="44.35141" lon="2.59013">
        <ele>533.6689453</ele>
        <time>2014-01-11T08:26:43Z</time>
      </trkpt>
      <trkpt lat="44.3515" lon="2.58998">
        <ele>532.2270508</ele>
        <time>2014-01-11T08:26:48Z</time>
      </trkpt>
      <trkpt lat="44.35158" lon="2.58986">
        <ele>531.7463379</ele>
        <time>2014-01-11T08:26:52Z</time>
      </trkpt>
      <trkpt lat="44.35166" lon="2.58966">
        <ele>532.2270508</ele>
        <time>2014-01-11T08:26:58Z</time>
      </trkpt>
      <trkpt lat="44.35171" lon="2.58953">
        <ele>532.2270508</ele>
        <time>2014-01-11T08:27:02Z</time>
      </trkpt>
      <trkpt lat="44.35176" lon="2.58935">
        <ele>530.7851563</ele>
        <time>2014-01-11T08:27:07Z</time>
      </trkpt>
      <trkpt lat="44.35184" lon="2.58914">
        <ele>528.3818359</ele>
        <time>2014-01-11T08:27:13Z</time>
      </trkpt>
      <trkpt lat="44.35191" lon="2.58895">
        <ele>528.8625488</ele>
        <time>2014-01-11T08:27:18Z</time>
      </trkpt>
      <trkpt lat="44.352" lon="2.58875">
        <ele>528.3818359</ele>
        <time>2014-01-11T08:27:24Z</time>
      </trkpt>
      <trkpt lat="44.35209" lon="2.58859">
        <ele>527.4204102</ele>
        <time>2014-01-11T08:27:29Z</time>
      </trkpt>
      <trkpt lat="44.35216" lon="2.58847">
        <ele>526.4591064</ele>
        <time>2014-01-11T08:27:33Z</time>
      </trkpt>
      <trkpt lat="44.35223" lon="2.58831">
        <ele>525.0172119</ele>
        <time>2014-01-11T08:27:38Z</time>
      </trkpt>
      <trkpt lat="44.35231" lon="2.58814">
        <ele>524.536499</ele>
        <time>2014-01-11T08:27:43Z</time>
      </trkpt>
      <trkpt lat="44.35233" lon="2.58811">
        <ele>525.0172119</ele>
        <time>2014-01-11T08:27:44Z</time>
      </trkpt>
      <trkpt lat="44.35241" lon="2.58793">
        <ele>524.0557861</ele>
        <time>2014-01-11T08:27:50Z</time>
      </trkpt>
      <trkpt lat="44.35248" lon="2.58771">
        <ele>526.4591064</ele>
        <time>2014-01-11T08:27:56Z</time>
      </trkpt>
      <trkpt lat="44.35255" lon="2.58751">
        <ele>525.9783936</ele>
        <time>2014-01-11T08:28:02Z</time>
      </trkpt>
      <trkpt lat="44.35256" lon="2.58748">
        <ele>526.4591064</ele>
        <time>2014-01-11T08:28:03Z</time>
      </trkpt>
      <trkpt lat="44.35263" lon="2.58727">
        <ele>527.4204102</ele>
        <time>2014-01-11T08:28:09Z</time>
      </trkpt>
      <trkpt lat="44.35266" lon="2.5872">
        <ele>527.901001</ele>
        <time>2014-01-11T08:28:11Z</time>
      </trkpt>
      <trkpt lat="44.35273" lon="2.58699">
        <ele>529.8237305</ele>
        <time>2014-01-11T08:28:17Z</time>
      </trkpt>
      <trkpt lat="44.35282" lon="2.58677">
        <ele>531.2657471</ele>
        <time>2014-01-11T08:28:23Z</time>
      </trkpt>
      <trkpt lat="44.35289" lon="2.5866">
        <ele>532.7077637</ele>
        <time>2014-01-11T08:28:28Z</time>
      </trkpt>
      <trkpt lat="44.35297" lon="2.58644">
        <ele>531.2657471</ele>
        <time>2014-01-11T08:28:32Z</time>
      </trkpt>
      <trkpt lat="44.35299" lon="2.58643">
        <ele>530.7851563</ele>
        <time>2014-01-11T08:28:33Z</time>
      </trkpt>
      <trkpt lat="44.35307" lon="2.58633">
        <ele>529.8237305</ele>
        <time>2014-01-11T08:28:38Z</time>
      </trkpt>
      <trkpt lat="44.3531" lon="2.58623">
        <ele>528.8625488</ele>
        <time>2014-01-11T08:28:41Z</time>
      </trkpt>
      <trkpt lat="44.35316" lon="2.58608">
        <ele>527.4204102</ele>
        <time>2014-01-11T08:28:45Z</time>
      </trkpt>
      <trkpt lat="44.35323" lon="2.58595">
        <ele>525.9783936</ele>
        <time>2014-01-11T08:28:49Z</time>
      </trkpt>
      <trkpt lat="44.35332" lon="2.5858">
        <ele>525.0172119</ele>
        <time>2014-01-11T08:28:54Z</time>
      </trkpt>
      <trkpt lat="44.35342" lon="2.58568">
        <ele>524.0557861</ele>
        <time>2014-01-11T08:28:58Z</time>
      </trkpt>
      <trkpt lat="44.35351" lon="2.58557">
        <ele>523.5751953</ele>
        <time>2014-01-11T08:29:02Z</time>
      </trkpt>
      <trkpt lat="44.3536" lon="2.5855">
        <ele>523.5751953</ele>
        <time>2014-01-11T08:29:06Z</time>
      </trkpt>
      <trkpt lat="44.35369" lon="2.58542">
        <ele>523.5751953</ele>
        <time>2014-01-11T08:29:10Z</time>
      </trkpt>
      <trkpt lat="44.35373" lon="2.58528">
        <ele>525.0172119</ele>
        <time>2014-01-11T08:29:15Z</time>
      </trkpt>
      <trkpt lat="44.35373" lon="2.58505">
        <ele>525.9783936</ele>
        <time>2014-01-11T08:29:21Z</time>
      </trkpt>
      <trkpt lat="44.35373" lon="2.58483">
        <ele>527.4204102</ele>
        <time>2014-01-11T08:29:26Z</time>
      </trkpt>
      <trkpt lat="44.35371" lon="2.58464">
        <ele>527.4204102</ele>
        <time>2014-01-11T08:29:31Z</time>
      </trkpt>
      <trkpt lat="44.3537" lon="2.58447">
        <ele>527.901001</ele>
        <time>2014-01-11T08:29:36Z</time>
      </trkpt>
      <trkpt lat="44.35369" lon="2.58431">
        <ele>527.901001</ele>
        <time>2014-01-11T08:29:40Z</time>
      </trkpt>
      <trkpt lat="44.35365" lon="2.58407">
        <ele>526.4591064</ele>
        <time>2014-01-11T08:29:46Z</time>
      </trkpt>
      <trkpt lat="44.35361" lon="2.58387">
        <ele>525.9783936</ele>
        <time>2014-01-11T08:29:51Z</time>
      </trkpt>
      <trkpt lat="44.35357" lon="2.58367">
        <ele>526.4591064</ele>
        <time>2014-01-11T08:29:56Z</time>
      </trkpt>
      <trkpt lat="44.35352" lon="2.58342">
        <ele>526.9398193</ele>
        <time>2014-01-11T08:30:02Z</time>
      </trkpt>
      <trkpt lat="44.3535" lon="2.5833">
        <ele>525.9783936</ele>
        <time>2014-01-11T08:30:05Z</time>
      </trkpt>
      <trkpt lat="44.3535" lon="2.58315">
        <ele>525.4978027</ele>
        <time>2014-01-11T08:30:09Z</time>
      </trkpt>
      <trkpt lat="44.35347" lon="2.5829">
        <ele>526.4591064</ele>
        <time>2014-01-11T08:30:15Z</time>
      </trkpt>
      <trkpt lat="44.35344" lon="2.58266">
        <ele>527.4204102</ele>
        <time>2014-01-11T08:30:21Z</time>
      </trkpt>
      <trkpt lat="44.35345" lon="2.58241">
        <ele>527.4204102</ele>
        <time>2014-01-11T08:30:27Z</time>
      </trkpt>
      <trkpt lat="44.35346" lon="2.58217">
        <ele>527.901001</ele>
        <time>2014-01-11T08:30:33Z</time>
      </trkpt>
      <trkpt lat="44.35349" lon="2.582">
        <ele>527.4204102</ele>
        <time>2014-01-11T08:30:38Z</time>
      </trkpt>
      <trkpt lat="44.35352" lon="2.5818">
        <ele>526.4591064</ele>
        <time>2014-01-11T08:30:43Z</time>
      </trkpt>
      <trkpt lat="44.35356" lon="2.58158">
        <ele>525.4978027</ele>
        <time>2014-01-11T08:30:49Z</time>
      </trkpt>
      <trkpt lat="44.35359" lon="2.5814">
        <ele>526.4591064</ele>
        <time>2014-01-11T08:30:54Z</time>
      </trkpt>
      <trkpt lat="44.35361" lon="2.58119">
        <ele>528.3818359</ele>
        <time>2014-01-11T08:31:00Z</time>
      </trkpt>
      <trkpt lat="44.3536" lon="2.58116">
        <ele>528.8625488</ele>
        <time>2014-01-11T08:31:01Z</time>
      </trkpt>
      <trkpt lat="44.35353" lon="2.58115">
        <ele>529.8237305</ele>
        <time>2014-01-11T08:31:05Z</time>
      </trkpt>
      <trkpt lat="44.35342" lon="2.58119">
        <ele>529.8237305</ele>
        <time>2014-01-11T08:31:10Z</time>
      </trkpt>
      <trkpt lat="44.35337" lon="2.58121">
        <ele>529.8237305</ele>
        <time>2014-01-11T08:31:12Z</time>
      </trkpt>
      <trkpt lat="44.35328" lon="2.58126">
        <ele>529.3431396</ele>
        <time>2014-01-11T08:31:18Z</time>
      </trkpt>
      <trkpt lat="44.35328" lon="2.58123">
        <ele>527.901001</ele>
        <time>2014-01-11T08:31:25Z</time>
      </trkpt>
      <trkpt lat="44.35326" lon="2.58124">
        <ele>526.9398193</ele>
        <time>2014-01-11T08:31:27Z</time>
      </trkpt>
      <trkpt lat="44.35312" lon="2.58128">
        <ele>524.536499</ele>
        <time>2014-01-11T08:31:33Z</time>
      </trkpt>
      <trkpt lat="44.35302" lon="2.58135">
        <ele>524.0557861</ele>
        <time>2014-01-11T08:31:37Z</time>
      </trkpt>
      <trkpt lat="44.35302" lon="2.58147">
        <ele>523.5751953</ele>
        <time>2014-01-11T08:31:41Z</time>
      </trkpt>
      <trkpt lat="44.35306" lon="2.58158">
        <ele>524.0557861</ele>
        <time>2014-01-11T08:31:44Z</time>
      </trkpt>
      <trkpt lat="44.35309" lon="2.58181">
        <ele>524.0557861</ele>
        <time>2014-01-11T08:31:50Z</time>
      </trkpt>
      <trkpt lat="44.35311" lon="2.58197">
        <ele>524.536499</ele>
        <time>2014-01-11T08:31:54Z</time>
      </trkpt>
      <trkpt lat="44.35308" lon="2.58213">
        <ele>525.4978027</ele>
        <time>2014-01-11T08:31:58Z</time>
      </trkpt>
      <trkpt lat="44.35304" lon="2.5823">
        <ele>525.4978027</ele>
        <time>2014-01-11T08:32:03Z</time>
      </trkpt>
      <trkpt lat="44.35299" lon="2.58243">
        <ele>525.4978027</ele>
        <time>2014-01-11T08:32:07Z</time>
      </trkpt>
      <trkpt lat="44.35292" lon="2.58259">
        <ele>525.9783936</ele>
        <time>2014-01-11T08:32:12Z</time>
      </trkpt>
      <trkpt lat="44.3529" lon="2.58277">
        <ele>525.9783936</ele>
        <time>2014-01-11T08:32:17Z</time>
      </trkpt>
      <trkpt lat="44.3529" lon="2.58302">
        <ele>527.4204102</ele>
        <time>2014-01-11T08:32:23Z</time>
      </trkpt>
      <trkpt lat="44.35288" lon="2.58317">
        <ele>527.901001</ele>
        <time>2014-01-11T08:32:27Z</time>
      </trkpt>
      <trkpt lat="44.35283" lon="2.58338">
        <ele>527.901001</ele>
        <time>2014-01-11T08:32:33Z</time>
      </trkpt>
      <trkpt lat="44.35279" lon="2.58352">
        <ele>527.901001</ele>
        <time>2014-01-11T08:32:37Z</time>
      </trkpt>
      <trkpt lat="44.35271" lon="2.5837">
        <ele>528.3818359</ele>
        <time>2014-01-11T08:32:43Z</time>
      </trkpt>
      <trkpt lat="44.35262" lon="2.58388">
        <ele>527.901001</ele>
        <time>2014-01-11T08:32:49Z</time>
      </trkpt>
      <trkpt lat="44.35255" lon="2.58408">
        <ele>529.8237305</ele>
        <time>2014-01-11T08:32:55Z</time>
      </trkpt>
      <trkpt lat="44.35248" lon="2.58429">
        <ele>531.2657471</ele>
        <time>2014-01-11T08:33:01Z</time>
      </trkpt>
      <trkpt lat="44.3524" lon="2.58449">
        <ele>529.8237305</ele>
        <time>2014-01-11T08:33:07Z</time>
      </trkpt>
      <trkpt lat="44.35231" lon="2.58471">
        <ele>530.3044434</ele>
        <time>2014-01-11T08:33:14Z</time>
      </trkpt>
      <trkpt lat="44.35222" lon="2.58489">
        <ele>530.7851563</ele>
        <time>2014-01-11T08:33:20Z</time>
      </trkpt>
      <trkpt lat="44.35213" lon="2.58506">
        <ele>531.7463379</ele>
        <time>2014-01-11T08:33:26Z</time>
      </trkpt>
      <trkpt lat="44.35204" lon="2.5852">
        <ele>532.2270508</ele>
        <time>2014-01-11T08:33:31Z</time>
      </trkpt>
      <trkpt lat="44.35197" lon="2.58535">
        <ele>531.7463379</ele>
        <time>2014-01-11T08:33:36Z</time>
      </trkpt>
      <trkpt lat="44.35191" lon="2.58551">
        <ele>532.7077637</ele>
        <time>2014-01-11T08:33:41Z</time>
      </trkpt>
      <trkpt lat="44.35185" lon="2.5857">
        <ele>534.1496582</ele>
        <time>2014-01-11T08:33:47Z</time>
      </trkpt>
      <trkpt lat="44.35179" lon="2.58587">
        <ele>533.6689453</ele>
        <time>2014-01-11T08:33:53Z</time>
      </trkpt>
      <trkpt lat="44.35173" lon="2.58602">
        <ele>534.6303711</ele>
        <time>2014-01-11T08:33:58Z</time>
      </trkpt>
      <trkpt lat="44.35167" lon="2.58616">
        <ele>533.6689453</ele>
        <time>2014-01-11T08:34:03Z</time>
      </trkpt>
      <trkpt lat="44.35161" lon="2.58633">
        <ele>533.1883545</ele>
        <time>2014-01-11T08:34:09Z</time>
      </trkpt>
      <trkpt lat="44.35153" lon="2.58652">
        <ele>534.6303711</ele>
        <time>2014-01-11T08:34:15Z</time>
      </trkpt>
      <trkpt lat="44.35146" lon="2.58671">
        <ele>535.1109619</ele>
        <time>2014-01-11T08:34:21Z</time>
      </trkpt>
      <trkpt lat="44.35139" lon="2.5869">
        <ele>536.5531006</ele>
        <time>2014-01-11T08:34:27Z</time>
      </trkpt>
      <trkpt lat="44.3513" lon="2.58712">
        <ele>536.0723877</ele>
        <time>2014-01-11T08:34:34Z</time>
      </trkpt>
      <trkpt lat="44.35123" lon="2.58729">
        <ele>536.0723877</ele>
        <time>2014-01-11T08:34:40Z</time>
      </trkpt>
      <trkpt lat="44.35116" lon="2.58745">
        <ele>536.0723877</ele>
        <time>2014-01-11T08:34:45Z</time>
      </trkpt>
      <trkpt lat="44.35108" lon="2.58764">
        <ele>536.5531006</ele>
        <time>2014-01-11T08:34:51Z</time>
      </trkpt>
      <trkpt lat="44.35101" lon="2.5878">
        <ele>536.5531006</ele>
        <time>2014-01-11T08:34:56Z</time>
      </trkpt>
      <trkpt lat="44.35095" lon="2.58793">
        <ele>535.1109619</ele>
        <time>2014-01-11T08:35:01Z</time>
      </trkpt>
      <trkpt lat="44.35087" lon="2.58809">
        <ele>534.1496582</ele>
        <time>2014-01-11T08:35:07Z</time>
      </trkpt>
      <trkpt lat="44.3508" lon="2.58829">
        <ele>537.9949951</ele>
        <time>2014-01-11T08:35:13Z</time>
      </trkpt>
      <trkpt lat="44.35074" lon="2.58848">
        <ele>538.475708</ele>
        <time>2014-01-11T08:35:18Z</time>
      </trkpt>
      <trkpt lat="44.35066" lon="2.5886">
        <ele>537.0336914</ele>
        <time>2014-01-11T08:35:23Z</time>
      </trkpt>
      <trkpt lat="44.3506" lon="2.58869">
        <ele>536.0723877</ele>
        <time>2014-01-11T08:35:27Z</time>
      </trkpt>
      <trkpt lat="44.35052" lon="2.58888">
        <ele>536.5531006</ele>
        <time>2014-01-11T08:35:33Z</time>
      </trkpt>
      <trkpt lat="44.35045" lon="2.589">
        <ele>535.1109619</ele>
        <time>2014-01-11T08:35:38Z</time>
      </trkpt>
      <trkpt lat="44.35036" lon="2.58918">
        <ele>540.3983154</ele>
        <time>2014-01-11T08:35:44Z</time>
      </trkpt>
      <trkpt lat="44.35029" lon="2.58927">
        <ele>540.3983154</ele>
        <time>2014-01-11T08:35:48Z</time>
      </trkpt>
      <trkpt lat="44.35022" lon="2.58936">
        <ele>540.3983154</ele>
        <time>2014-01-11T08:35:52Z</time>
      </trkpt>
      <trkpt lat="44.35019" lon="2.58941">
        <ele>540.3983154</ele>
        <time>2014-01-11T08:35:56Z</time>
      </trkpt>
      <trkpt lat="44.35014" lon="2.58946">
        <ele>539.4368896</ele>
        <time>2014-01-11T08:36:01Z</time>
      </trkpt>
      <trkpt lat="44.35008" lon="2.58952">
        <ele>538.475708</ele>
        <time>2014-01-11T08:36:05Z</time>
      </trkpt>
      <trkpt lat="44.35002" lon="2.5896">
        <ele>537.9949951</ele>
        <time>2014-01-11T08:36:09Z</time>
      </trkpt>
      <trkpt lat="44.34994" lon="2.58968">
        <ele>537.5142822</ele>
        <time>2014-01-11T08:36:14Z</time>
      </trkpt>
      <trkpt lat="44.34988" lon="2.58975">
        <ele>538.9562988</ele>
        <time>2014-01-11T08:36:18Z</time>
      </trkpt>
      <trkpt lat="44.34985" lon="2.58978">
        <ele>540.3983154</ele>
        <time>2014-01-11T08:36:20Z</time>
      </trkpt>
      <trkpt lat="44.3498" lon="2.58978">
        <ele>548.0888672</ele>
        <time>2014-01-11T08:36:25Z</time>
      </trkpt>
      <trkpt lat="44.34981" lon="2.58976">
        <ele>549.0500488</ele>
        <time>2014-01-11T08:36:27Z</time>
      </trkpt>
      <trkpt lat="44.34985" lon="2.5897">
        <ele>549.0500488</ele>
        <time>2014-01-11T08:36:32Z</time>
      </trkpt>
      <trkpt lat="44.34987" lon="2.58962">
        <ele>550.0114746</ele>
        <time>2014-01-11T08:36:37Z</time>
      </trkpt>
      <trkpt lat="44.34989" lon="2.58959">
        <ele>549.5307617</ele>
        <time>2014-01-11T08:36:40Z</time>
      </trkpt>
      <trkpt lat="44.34991" lon="2.58944">
        <ele>550.0114746</ele>
        <time>2014-01-11T08:36:48Z</time>
      </trkpt>
      <trkpt lat="44.34989" lon="2.58934">
        <ele>550.0114746</ele>
        <time>2014-01-11T08:36:52Z</time>
      </trkpt>
      <trkpt lat="44.34988" lon="2.58921">
        <ele>551.934082</ele>
        <time>2014-01-11T08:36:57Z</time>
      </trkpt>
      <trkpt lat="44.34985" lon="2.58901">
        <ele>554.8178711</ele>
        <time>2014-01-11T08:37:03Z</time>
      </trkpt>
      <trkpt lat="44.34983" lon="2.58897">
        <ele>554.8178711</ele>
        <time>2014-01-11T08:37:04Z</time>
      </trkpt>
      <trkpt lat="44.34982" lon="2.58885">
        <ele>555.7792969</ele>
        <time>2014-01-11T08:37:08Z</time>
      </trkpt>
      <trkpt lat="44.34983" lon="2.58877">
        <ele>555.7792969</ele>
        <time>2014-01-11T08:37:12Z</time>
      </trkpt>
      <trkpt lat="44.34984" lon="2.58867">
        <ele>555.298584</ele>
        <time>2014-01-11T08:37:17Z</time>
      </trkpt>
      <trkpt lat="44.34984" lon="2.5886">
        <ele>552.4145508</ele>
        <time>2014-01-11T08:37:21Z</time>
      </trkpt>
      <trkpt lat="44.34983" lon="2.58852">
        <ele>550.9726563</ele>
        <time>2014-01-11T08:37:25Z</time>
      </trkpt>
      <trkpt lat="44.34983" lon="2.58846">
        <ele>551.934082</ele>
        <time>2014-01-11T08:37:30Z</time>
      </trkpt>
      <trkpt lat="44.34985" lon="2.58843">
        <ele>554.3374023</ele>
        <time>2014-01-11T08:37:33Z</time>
      </trkpt>
      <trkpt lat="44.34986" lon="2.58841">
        <ele>556.7407227</ele>
        <time>2014-01-11T08:37:35Z</time>
      </trkpt>
      <trkpt lat="44.3499" lon="2.58827">
        <ele>563.4699707</ele>
        <time>2014-01-11T08:37:42Z</time>
      </trkpt>
      <trkpt lat="44.34989" lon="2.58813">
        <ele>563.9504395</ele>
        <time>2014-01-11T08:37:51Z</time>
      </trkpt>
      <trkpt lat="44.34989" lon="2.58808">
        <ele>562.9892578</ele>
        <time>2014-01-11T08:37:54Z</time>
      </trkpt>
      <trkpt lat="44.34988" lon="2.58795">
        <ele>562.5085449</ele>
        <time>2014-01-11T08:38:01Z</time>
      </trkpt>
      <trkpt lat="44.34986" lon="2.5879">
        <ele>564.9118652</ele>
        <time>2014-01-11T08:38:04Z</time>
      </trkpt>
      <trkpt lat="44.34985" lon="2.58784">
        <ele>569.7185059</ele>
        <time>2014-01-11T08:38:09Z</time>
      </trkpt>
      <trkpt lat="44.34985" lon="2.58775">
        <ele>571.6408691</ele>
        <time>2014-01-11T08:38:15Z</time>
      </trkpt>
      <trkpt lat="44.34987" lon="2.58762">
        <ele>572.6025391</ele>
        <time>2014-01-11T08:38:21Z</time>
      </trkpt>
      <trkpt lat="44.34987" lon="2.58756">
        <ele>573.083252</ele>
        <time>2014-01-11T08:38:23Z</time>
      </trkpt>
      <trkpt lat="44.34991" lon="2.58745">
        <ele>572.1218262</ele>
        <time>2014-01-11T08:38:30Z</time>
      </trkpt>
      <trkpt lat="44.34996" lon="2.58733">
        <ele>569.237793</ele>
        <time>2014-01-11T08:38:36Z</time>
      </trkpt>
      <trkpt lat="44.34997" lon="2.5873">
        <ele>568.2763672</ele>
        <time>2014-01-11T08:38:37Z</time>
      </trkpt>
      <trkpt lat="44.35004" lon="2.58713">
        <ele>565.873291</ele>
        <time>2014-01-11T08:38:43Z</time>
      </trkpt>
      <trkpt lat="44.35009" lon="2.58702">
        <ele>566.3537598</ele>
        <time>2014-01-11T08:38:48Z</time>
      </trkpt>
      <trkpt lat="44.35011" lon="2.58694">
        <ele>566.8344727</ele>
        <time>2014-01-11T08:38:52Z</time>
      </trkpt>
      <trkpt lat="44.35011" lon="2.58691">
        <ele>568.7570801</ele>
        <time>2014-01-11T08:38:54Z</time>
      </trkpt>
      <trkpt lat="44.35015" lon="2.58678">
        <ele>572.1218262</ele>
        <time>2014-01-11T08:39:00Z</time>
      </trkpt>
      <trkpt lat="44.35016" lon="2.58667">
        <ele>573.5639648</ele>
        <time>2014-01-11T08:39:05Z</time>
      </trkpt>
      <trkpt lat="44.35017" lon="2.58653">
        <ele>574.0444336</ele>
        <time>2014-01-11T08:39:10Z</time>
      </trkpt>
      <trkpt lat="44.35018" lon="2.58642">
        <ele>576.9284668</ele>
        <time>2014-01-11T08:39:15Z</time>
      </trkpt>
      <trkpt lat="44.3502" lon="2.58637">
        <ele>578.8510742</ele>
        <time>2014-01-11T08:39:17Z</time>
      </trkpt>
      <trkpt lat="44.35022" lon="2.58619">
        <ele>583.6574707</ele>
        <time>2014-01-11T08:39:24Z</time>
      </trkpt>
      <trkpt lat="44.35023" lon="2.58616">
        <ele>585.0996094</ele>
        <time>2014-01-11T08:39:25Z</time>
      </trkpt>
      <trkpt lat="44.35024" lon="2.58606">
        <ele>588.9450684</ele>
        <time>2014-01-11T08:39:29Z</time>
      </trkpt>
      <trkpt lat="44.35026" lon="2.5859">
        <ele>588.9450684</ele>
        <time>2014-01-11T08:39:35Z</time>
      </trkpt>
      <trkpt lat="44.35027" lon="2.58581">
        <ele>587.0219727</ele>
        <time>2014-01-11T08:39:39Z</time>
      </trkpt>
      <trkpt lat="44.35028" lon="2.58568">
        <ele>582.6962891</ele>
        <time>2014-01-11T08:39:44Z</time>
      </trkpt>
      <trkpt lat="44.35026" lon="2.58562">
        <ele>580.7736816</ele>
        <time>2014-01-11T08:39:48Z</time>
      </trkpt>
      <trkpt lat="44.35021" lon="2.58557">
        <ele>584.1381836</ele>
        <time>2014-01-11T08:39:50Z</time>
      </trkpt>
      <trkpt lat="44.3501" lon="2.58557">
        <ele>591.3481445</ele>
        <time>2014-01-11T08:39:58Z</time>
      </trkpt>
      <trkpt lat="44.35007" lon="2.58559">
        <ele>592.3095703</ele>
        <time>2014-01-11T08:40:02Z</time>
      </trkpt>
      <trkpt lat="44.35003" lon="2.58561">
        <ele>592.7902832</ele>
        <time>2014-01-11T08:40:06Z</time>
      </trkpt>
      <trkpt lat="44.34999" lon="2.58562">
        <ele>595.1933594</ele>
        <time>2014-01-11T08:40:12Z</time>
      </trkpt>
      <trkpt lat="44.34994" lon="2.58565">
        <ele>598.0773926</ele>
        <time>2014-01-11T08:40:19Z</time>
      </trkpt>
      <trkpt lat="44.3499" lon="2.58571">
        <ele>600.4807129</ele>
        <time>2014-01-11T08:40:25Z</time>
      </trkpt>
      <trkpt lat="44.34984" lon="2.58577">
        <ele>602.8837891</ele>
        <time>2014-01-11T08:40:32Z</time>
      </trkpt>
      <trkpt lat="44.34978" lon="2.58582">
        <ele>605.2873535</ele>
        <time>2014-01-11T08:40:39Z</time>
      </trkpt>
      <trkpt lat="44.34974" lon="2.58583">
        <ele>607.6906738</ele>
        <time>2014-01-11T08:40:45Z</time>
      </trkpt>
      <trkpt lat="44.34968" lon="2.5858">
        <ele>609.1325684</ele>
        <time>2014-01-11T08:40:50Z</time>
      </trkpt>
      <trkpt lat="44.34964" lon="2.58577">
        <ele>611.5358887</ele>
        <time>2014-01-11T08:40:54Z</time>
      </trkpt>
      <trkpt lat="44.34957" lon="2.58577">
        <ele>612.9777832</ele>
        <time>2014-01-11T08:40:58Z</time>
      </trkpt>
      <trkpt lat="44.34954" lon="2.58578">
        <ele>613.4584961</ele>
        <time>2014-01-11T08:41:00Z</time>
      </trkpt>
      <trkpt lat="44.34949" lon="2.58577">
        <ele>614.4196777</ele>
        <time>2014-01-11T08:41:03Z</time>
      </trkpt>
      <trkpt lat="44.34938" lon="2.58574">
        <ele>616.822998</ele>
        <time>2014-01-11T08:41:09Z</time>
      </trkpt>
      <trkpt lat="44.34929" lon="2.58576">
        <ele>617.7841797</ele>
        <time>2014-01-11T08:41:14Z</time>
      </trkpt>
      <trkpt lat="44.34921" lon="2.58577">
        <ele>619.7070313</ele>
        <time>2014-01-11T08:41:19Z</time>
      </trkpt>
      <trkpt lat="44.34915" lon="2.58581">
        <ele>620.668457</ele>
        <time>2014-01-11T08:41:23Z</time>
      </trkpt>
      <trkpt lat="44.34911" lon="2.58583">
        <ele>621.1491699</ele>
        <time>2014-01-11T08:41:25Z</time>
      </trkpt>
      <trkpt lat="44.34906" lon="2.58592">
        <ele>622.1103516</ele>
        <time>2014-01-11T08:41:29Z</time>
      </trkpt>
      <trkpt lat="44.349" lon="2.58605">
        <ele>622.5910645</ele>
        <time>2014-01-11T08:41:35Z</time>
      </trkpt>
      <trkpt lat="44.3489" lon="2.58616">
        <ele>622.5910645</ele>
        <time>2014-01-11T08:41:41Z</time>
      </trkpt>
      <trkpt lat="44.34883" lon="2.58605">
        <ele>621.1491699</ele>
        <time>2014-01-11T08:41:47Z</time>
      </trkpt>
      <trkpt lat="44.3488" lon="2.58596">
        <ele>619.7070313</ele>
        <time>2014-01-11T08:41:50Z</time>
      </trkpt>
      <trkpt lat="44.34875" lon="2.58591">
        <ele>618.2648926</ele>
        <time>2014-01-11T08:41:53Z</time>
      </trkpt>
      <trkpt lat="44.34866" lon="2.58592">
        <ele>617.7841797</ele>
        <time>2014-01-11T08:41:57Z</time>
      </trkpt>
      <trkpt lat="44.34863" lon="2.58593">
        <ele>617.3037109</ele>
        <time>2014-01-11T08:42:01Z</time>
      </trkpt>
      <trkpt lat="44.34852" lon="2.58601">
        <ele>616.822998</ele>
        <time>2014-01-11T08:42:06Z</time>
      </trkpt>
      <trkpt lat="44.34842" lon="2.58604">
        <ele>616.822998</ele>
        <time>2014-01-11T08:42:11Z</time>
      </trkpt>
      <trkpt lat="44.3483" lon="2.58611">
        <ele>616.822998</ele>
        <time>2014-01-11T08:42:17Z</time>
      </trkpt>
      <trkpt lat="44.34826" lon="2.58614">
        <ele>616.822998</ele>
        <time>2014-01-11T08:42:19Z</time>
      </trkpt>
      <trkpt lat="44.34814" lon="2.5861">
        <ele>617.7841797</ele>
        <time>2014-01-11T08:42:24Z</time>
      </trkpt>
      <trkpt lat="44.3481" lon="2.58607">
        <ele>617.3037109</ele>
        <time>2014-01-11T08:42:26Z</time>
      </trkpt>
      <trkpt lat="44.34796" lon="2.58596">
        <ele>614.9003906</ele>
        <time>2014-01-11T08:42:32Z</time>
      </trkpt>
      <trkpt lat="44.34788" lon="2.58587">
        <ele>613.4584961</ele>
        <time>2014-01-11T08:42:36Z</time>
      </trkpt>
      <trkpt lat="44.34775" lon="2.58576">
        <ele>613.4584961</ele>
        <time>2014-01-11T08:42:41Z</time>
      </trkpt>
      <trkpt lat="44.34761" lon="2.58563">
        <ele>613.9389648</ele>
        <time>2014-01-11T08:42:47Z</time>
      </trkpt>
      <trkpt lat="44.34751" lon="2.58558">
        <ele>613.4584961</ele>
        <time>2014-01-11T08:42:51Z</time>
      </trkpt>
      <trkpt lat="44.34732" lon="2.58549">
        <ele>613.4584961</ele>
        <time>2014-01-11T08:42:58Z</time>
      </trkpt>
      <trkpt lat="44.34722" lon="2.58545">
        <ele>612.4970703</ele>
        <time>2014-01-11T08:43:02Z</time>
      </trkpt>
      <trkpt lat="44.34707" lon="2.58536">
        <ele>612.4970703</ele>
        <time>2014-01-11T08:43:08Z</time>
      </trkpt>
      <trkpt lat="44.34696" lon="2.58523">
        <ele>612.4970703</ele>
        <time>2014-01-11T08:43:13Z</time>
      </trkpt>
      <trkpt lat="44.34686" lon="2.58508">
        <ele>613.9389648</ele>
        <time>2014-01-11T08:43:19Z</time>
      </trkpt>
      <trkpt lat="44.34676" lon="2.58502">
        <ele>615.3811035</ele>
        <time>2014-01-11T08:43:24Z</time>
      </trkpt>
      <trkpt lat="44.34666" lon="2.58497">
        <ele>617.3037109</ele>
        <time>2014-01-11T08:43:29Z</time>
      </trkpt>
      <trkpt lat="44.34654" lon="2.58493">
        <ele>619.2263184</ele>
        <time>2014-01-11T08:43:34Z</time>
      </trkpt>
      <trkpt lat="44.34644" lon="2.58487">
        <ele>620.1877441</ele>
        <time>2014-01-11T08:43:39Z</time>
      </trkpt>
      <trkpt lat="44.34633" lon="2.58484">
        <ele>620.668457</ele>
        <time>2014-01-11T08:43:43Z</time>
      </trkpt>
      <trkpt lat="44.34623" lon="2.58485">
        <ele>620.668457</ele>
        <time>2014-01-11T08:43:47Z</time>
      </trkpt>
      <trkpt lat="44.34614" lon="2.58489">
        <ele>620.1877441</ele>
        <time>2014-01-11T08:43:51Z</time>
      </trkpt>
      <trkpt lat="44.346" lon="2.58496">
        <ele>618.7456055</ele>
        <time>2014-01-11T08:43:57Z</time>
      </trkpt>
      <trkpt lat="44.34588" lon="2.58504">
        <ele>616.822998</ele>
        <time>2014-01-11T08:44:03Z</time>
      </trkpt>
      <trkpt lat="44.34577" lon="2.58499">
        <ele>615.8618164</ele>
        <time>2014-01-11T08:44:08Z</time>
      </trkpt>
      <trkpt lat="44.34572" lon="2.58494">
        <ele>615.3811035</ele>
        <time>2014-01-11T08:44:11Z</time>
      </trkpt>
      <trkpt lat="44.34567" lon="2.58489">
        <ele>614.4196777</ele>
        <time>2014-01-11T08:44:13Z</time>
      </trkpt>
      <trkpt lat="44.34553" lon="2.58475">
        <ele>612.4970703</ele>
        <time>2014-01-11T08:44:19Z</time>
      </trkpt>
      <trkpt lat="44.34542" lon="2.58462">
        <ele>610.5744629</ele>
        <time>2014-01-11T08:44:24Z</time>
      </trkpt>
      <trkpt lat="44.34531" lon="2.58451">
        <ele>608.6518555</ele>
        <time>2014-01-11T08:44:29Z</time>
      </trkpt>
      <trkpt lat="44.34525" lon="2.58443">
        <ele>607.2099609</ele>
        <time>2014-01-11T08:44:32Z</time>
      </trkpt>
      <trkpt lat="44.34523" lon="2.58441">
        <ele>606.729248</ele>
        <time>2014-01-11T08:44:33Z</time>
      </trkpt>
      <trkpt lat="44.34512" lon="2.58428">
        <ele>604.3261719</ele>
        <time>2014-01-11T08:44:38Z</time>
      </trkpt>
      <trkpt lat="44.34503" lon="2.58418">
        <ele>602.8837891</ele>
        <time>2014-01-11T08:44:42Z</time>
      </trkpt>
      <trkpt lat="44.34493" lon="2.58406">
        <ele>600</ele>
        <time>2014-01-11T08:44:47Z</time>
      </trkpt>
      <trkpt lat="44.34482" lon="2.5839">
        <ele>596.1547852</ele>
        <time>2014-01-11T08:44:53Z</time>
      </trkpt>
      <trkpt lat="44.34472" lon="2.58379">
        <ele>594.2321777</ele>
        <time>2014-01-11T08:44:57Z</time>
      </trkpt>
      <trkpt lat="44.34469" lon="2.58377">
        <ele>593.270752</ele>
        <time>2014-01-11T08:44:58Z</time>
      </trkpt>
      <trkpt lat="44.34465" lon="2.58371">
        <ele>592.3095703</ele>
        <time>2014-01-11T08:45:00Z</time>
      </trkpt>
      <trkpt lat="44.34468" lon="2.58357">
        <ele>590.3869629</ele>
        <time>2014-01-11T08:45:05Z</time>
      </trkpt>
      <trkpt lat="44.34478" lon="2.58345">
        <ele>589.4255371</ele>
        <time>2014-01-11T08:45:10Z</time>
      </trkpt>
      <trkpt lat="44.34484" lon="2.58331">
        <ele>588.4643555</ele>
        <time>2014-01-11T08:45:15Z</time>
      </trkpt>
      <trkpt lat="44.3448" lon="2.58322">
        <ele>587.5026855</ele>
        <time>2014-01-11T08:45:18Z</time>
      </trkpt>
      <trkpt lat="44.34469" lon="2.58308">
        <ele>585.5800781</ele>
        <time>2014-01-11T08:45:24Z</time>
      </trkpt>
      <trkpt lat="44.34458" lon="2.58313">
        <ele>584.1381836</ele>
        <time>2014-01-11T08:45:29Z</time>
      </trkpt>
      <trkpt lat="44.34454" lon="2.58318">
        <ele>582.6962891</ele>
        <time>2014-01-11T08:45:31Z</time>
      </trkpt>
      <trkpt lat="44.34444" lon="2.58326">
        <ele>582.2155762</ele>
        <time>2014-01-11T08:45:36Z</time>
      </trkpt>
      <trkpt lat="44.34442" lon="2.58328">
        <ele>581.7348633</ele>
        <time>2014-01-11T08:45:37Z</time>
      </trkpt>
      <trkpt lat="44.34428" lon="2.5834">
        <ele>581.7348633</ele>
        <time>2014-01-11T08:45:43Z</time>
      </trkpt>
      <trkpt lat="44.34415" lon="2.58355">
        <ele>578.8510742</ele>
        <time>2014-01-11T08:45:49Z</time>
      </trkpt>
      <trkpt lat="44.34407" lon="2.58376">
        <ele>578.3703613</ele>
        <time>2014-01-11T08:45:55Z</time>
      </trkpt>
      <trkpt lat="44.34403" lon="2.58395">
        <ele>577.8896484</ele>
        <time>2014-01-11T08:46:00Z</time>
      </trkpt>
      <trkpt lat="44.34401" lon="2.58421">
        <ele>575.967041</ele>
        <time>2014-01-11T08:46:07Z</time>
      </trkpt>
      <trkpt lat="44.344" lon="2.58427">
        <ele>575.4863281</ele>
        <time>2014-01-11T08:46:09Z</time>
      </trkpt>
      <trkpt lat="44.34394" lon="2.58421">
        <ele>573.5639648</ele>
        <time>2014-01-11T08:46:13Z</time>
      </trkpt>
      <trkpt lat="44.34391" lon="2.58409">
        <ele>571.1604004</ele>
        <time>2014-01-11T08:46:17Z</time>
      </trkpt>
      <trkpt lat="44.34386" lon="2.58399">
        <ele>569.7185059</ele>
        <time>2014-01-11T08:46:20Z</time>
      </trkpt>
      <trkpt lat="44.3438" lon="2.58378">
        <ele>568.7570801</ele>
        <time>2014-01-11T08:46:26Z</time>
      </trkpt>
      <trkpt lat="44.34379" lon="2.58355">
        <ele>566.8344727</ele>
        <time>2014-01-11T08:46:32Z</time>
      </trkpt>
      <trkpt lat="44.34379" lon="2.58332">
        <ele>566.8344727</ele>
        <time>2014-01-11T08:46:37Z</time>
      </trkpt>
      <trkpt lat="44.3438" lon="2.58325">
        <ele>566.3537598</ele>
        <time>2014-01-11T08:46:39Z</time>
      </trkpt>
      <trkpt lat="44.34381" lon="2.58322">
        <ele>565.3925781</ele>
        <time>2014-01-11T08:46:45Z</time>
      </trkpt>
      <trkpt lat="44.34387" lon="2.58314">
        <ele>565.3925781</ele>
        <time>2014-01-11T08:46:49Z</time>
      </trkpt>
      <trkpt lat="44.34394" lon="2.583">
        <ele>563.9504395</ele>
        <time>2014-01-11T08:46:54Z</time>
      </trkpt>
      <trkpt lat="44.34404" lon="2.58282">
        <ele>561.5473633</ele>
        <time>2014-01-11T08:47:00Z</time>
      </trkpt>
      <trkpt lat="44.34412" lon="2.58269">
        <ele>558.6633301</ele>
        <time>2014-01-11T08:47:05Z</time>
      </trkpt>
      <trkpt lat="44.34419" lon="2.58258">
        <ele>556.7407227</ele>
        <time>2014-01-11T08:47:09Z</time>
      </trkpt>
      <trkpt lat="44.34428" lon="2.58244">
        <ele>555.298584</ele>
        <time>2014-01-11T08:47:14Z</time>
      </trkpt>
      <trkpt lat="44.34437" lon="2.58227">
        <ele>555.7792969</ele>
        <time>2014-01-11T08:47:19Z</time>
      </trkpt>
      <trkpt lat="44.3444" lon="2.58221">
        <ele>556.2600098</ele>
        <time>2014-01-11T08:47:21Z</time>
      </trkpt>
      <trkpt lat="44.34449" lon="2.58211">
        <ele>557.2214355</ele>
        <time>2014-01-11T08:47:25Z</time>
      </trkpt>
      <trkpt lat="44.34465" lon="2.58202">
        <ele>556.7407227</ele>
        <time>2014-01-11T08:47:31Z</time>
      </trkpt>
      <trkpt lat="44.34473" lon="2.58198">
        <ele>555.7792969</ele>
        <time>2014-01-11T08:47:34Z</time>
      </trkpt>
      <trkpt lat="44.34479" lon="2.58187">
        <ele>552.4145508</ele>
        <time>2014-01-11T08:47:39Z</time>
      </trkpt>
      <trkpt lat="44.34472" lon="2.5818">
        <ele>551.934082</ele>
        <time>2014-01-11T08:47:42Z</time>
      </trkpt>
      <trkpt lat="44.34464" lon="2.58182">
        <ele>550.0114746</ele>
        <time>2014-01-11T08:47:46Z</time>
      </trkpt>
      <trkpt lat="44.34459" lon="2.58184">
        <ele>549.5307617</ele>
        <time>2014-01-11T08:47:48Z</time>
      </trkpt>
      <trkpt lat="44.34444" lon="2.58182">
        <ele>549.0500488</ele>
        <time>2014-01-11T08:47:53Z</time>
      </trkpt>
      <trkpt lat="44.34432" lon="2.58185">
        <ele>547.6081543</ele>
        <time>2014-01-11T08:47:57Z</time>
      </trkpt>
      <trkpt lat="44.34427" lon="2.58188">
        <ele>547.1274414</ele>
        <time>2014-01-11T08:47:59Z</time>
      </trkpt>
      <trkpt lat="44.34415" lon="2.58199">
        <ele>546.1662598</ele>
        <time>2014-01-11T08:48:04Z</time>
      </trkpt>
      <trkpt lat="44.34405" lon="2.58211">
        <ele>546.1662598</ele>
        <time>2014-01-11T08:48:08Z</time>
      </trkpt>
      <trkpt lat="44.34396" lon="2.58225">
        <ele>545.6855469</ele>
        <time>2014-01-11T08:48:13Z</time>
      </trkpt>
      <trkpt lat="44.34386" lon="2.58238">
        <ele>544.2436523</ele>
        <time>2014-01-11T08:48:18Z</time>
      </trkpt>
      <trkpt lat="44.34376" lon="2.58251">
        <ele>543.2821045</ele>
        <time>2014-01-11T08:48:23Z</time>
      </trkpt>
      <trkpt lat="44.34368" lon="2.58265">
        <ele>540.8789063</ele>
        <time>2014-01-11T08:48:28Z</time>
      </trkpt>
      <trkpt lat="44.34359" lon="2.58282">
        <ele>538.9562988</ele>
        <time>2014-01-11T08:48:33Z</time>
      </trkpt>
      <trkpt lat="44.3435" lon="2.58296">
        <ele>537.9949951</ele>
        <time>2014-01-11T08:48:38Z</time>
      </trkpt>
      <trkpt lat="44.3434" lon="2.58313">
        <ele>535.5915527</ele>
        <time>2014-01-11T08:48:44Z</time>
      </trkpt>
      <trkpt lat="44.34328" lon="2.58329">
        <ele>534.1496582</ele>
        <time>2014-01-11T08:48:50Z</time>
      </trkpt>
      <trkpt lat="44.34326" lon="2.58331">
        <ele>533.6689453</ele>
        <time>2014-01-11T08:48:51Z</time>
      </trkpt>
      <trkpt lat="44.34324" lon="2.58325">
        <ele>531.2657471</ele>
        <time>2014-01-11T08:48:55Z</time>
      </trkpt>
      <trkpt lat="44.34325" lon="2.58319">
        <ele>531.2657471</ele>
        <time>2014-01-11T08:48:57Z</time>
      </trkpt>
      <trkpt lat="44.34339" lon="2.58298">
        <ele>531.2657471</ele>
        <time>2014-01-11T08:49:05Z</time>
      </trkpt>
      <trkpt lat="44.34348" lon="2.58284">
        <ele>529.8237305</ele>
        <time>2014-01-11T08:49:10Z</time>
      </trkpt>
      <trkpt lat="44.34356" lon="2.58269">
        <ele>529.3431396</ele>
        <time>2014-01-11T08:49:15Z</time>
      </trkpt>
      <trkpt lat="44.34364" lon="2.5825">
        <ele>528.8625488</ele>
        <time>2014-01-11T08:49:21Z</time>
      </trkpt>
      <trkpt lat="44.34373" lon="2.58228">
        <ele>529.3431396</ele>
        <time>2014-01-11T08:49:28Z</time>
      </trkpt>
      <trkpt lat="44.3438" lon="2.58214">
        <ele>528.8625488</ele>
        <time>2014-01-11T08:49:33Z</time>
      </trkpt>
      <trkpt lat="44.34384" lon="2.58203">
        <ele>527.4204102</ele>
        <time>2014-01-11T08:49:37Z</time>
      </trkpt>
      <trkpt lat="44.34389" lon="2.58187">
        <ele>526.9398193</ele>
        <time>2014-01-11T08:49:42Z</time>
      </trkpt>
      <trkpt lat="44.34391" lon="2.58175">
        <ele>527.4204102</ele>
        <time>2014-01-11T08:49:45Z</time>
      </trkpt>
      <trkpt lat="44.34392" lon="2.58153">
        <ele>526.4591064</ele>
        <time>2014-01-11T08:49:50Z</time>
      </trkpt>
      <trkpt lat="44.34391" lon="2.5814">
        <ele>527.4204102</ele>
        <time>2014-01-11T08:49:53Z</time>
      </trkpt>
      <trkpt lat="44.34386" lon="2.58127">
        <ele>526.4591064</ele>
        <time>2014-01-11T08:49:57Z</time>
      </trkpt>
      <trkpt lat="44.34382" lon="2.58122">
        <ele>525.4978027</ele>
        <time>2014-01-11T08:49:59Z</time>
      </trkpt>
      <trkpt lat="44.34371" lon="2.58121">
        <ele>523.5751953</ele>
        <time>2014-01-11T08:50:04Z</time>
      </trkpt>
      <trkpt lat="44.34363" lon="2.58128">
        <ele>523.0946045</ele>
        <time>2014-01-11T08:50:08Z</time>
      </trkpt>
      <trkpt lat="44.34362" lon="2.5813">
        <ele>523.5751953</ele>
        <time>2014-01-11T08:50:09Z</time>
      </trkpt>
      <trkpt lat="44.34351" lon="2.58148">
        <ele>524.536499</ele>
        <time>2014-01-11T08:50:15Z</time>
      </trkpt>
      <trkpt lat="44.34342" lon="2.58164">
        <ele>524.536499</ele>
        <time>2014-01-11T08:50:21Z</time>
      </trkpt>
      <trkpt lat="44.34333" lon="2.58176">
        <ele>523.5751953</ele>
        <time>2014-01-11T08:50:26Z</time>
      </trkpt>
      <trkpt lat="44.34324" lon="2.58195">
        <ele>526.9398193</ele>
        <time>2014-01-11T08:50:33Z</time>
      </trkpt>
      <trkpt lat="44.34315" lon="2.58209">
        <ele>528.3818359</ele>
        <time>2014-01-11T08:50:38Z</time>
      </trkpt>
      <trkpt lat="44.34303" lon="2.58225">
        <ele>529.3431396</ele>
        <time>2014-01-11T08:50:45Z</time>
      </trkpt>
      <trkpt lat="44.34299" lon="2.58228">
        <ele>530.3044434</ele>
        <time>2014-01-11T08:50:48Z</time>
      </trkpt>
      <trkpt lat="44.34297" lon="2.58233">
        <ele>533.1883545</ele>
        <time>2014-01-11T08:50:52Z</time>
      </trkpt>
      <trkpt lat="44.34294" lon="2.58232">
        <ele>534.1496582</ele>
        <time>2014-01-11T08:50:56Z</time>
      </trkpt>
      <trkpt lat="44.3429" lon="2.58226">
        <ele>536.0723877</ele>
        <time>2014-01-11T08:51:01Z</time>
      </trkpt>
      <trkpt lat="44.34285" lon="2.5822">
        <ele>539.9176025</ele>
        <time>2014-01-11T08:51:08Z</time>
      </trkpt>
      <trkpt lat="44.34283" lon="2.58217">
        <ele>541.3594971</ele>
        <time>2014-01-11T08:51:14Z</time>
      </trkpt>
      <trkpt lat="44.34281" lon="2.58213">
        <ele>541.84021</ele>
        <time>2014-01-11T08:51:20Z</time>
      </trkpt>
      <trkpt lat="44.34278" lon="2.5821">
        <ele>543.7628174</ele>
        <time>2014-01-11T08:51:26Z</time>
      </trkpt>
      <trkpt lat="44.34276" lon="2.58207">
        <ele>546.1662598</ele>
        <time>2014-01-11T08:51:33Z</time>
      </trkpt>
      <trkpt lat="44.34273" lon="2.58202">
        <ele>550.4921875</ele>
        <time>2014-01-11T08:51:40Z</time>
      </trkpt>
      <trkpt lat="44.34274" lon="2.58198">
        <ele>550.9726563</ele>
        <time>2014-01-11T08:51:42Z</time>
      </trkpt>
      <trkpt lat="44.34276" lon="2.58187">
        <ele>552.4145508</ele>
        <time>2014-01-11T08:51:46Z</time>
      </trkpt>
      <trkpt lat="44.34276" lon="2.58181">
        <ele>552.4145508</ele>
        <time>2014-01-11T08:51:48Z</time>
      </trkpt>
      <trkpt lat="44.34269" lon="2.58164">
        <ele>553.8566895</ele>
        <time>2014-01-11T08:51:54Z</time>
      </trkpt>
      <trkpt lat="44.34267" lon="2.58162">
        <ele>554.3374023</ele>
        <time>2014-01-11T08:51:55Z</time>
      </trkpt>
      <trkpt lat="44.34255" lon="2.58154">
        <ele>556.7407227</ele>
        <time>2014-01-11T08:52:00Z</time>
      </trkpt>
      <trkpt lat="44.34251" lon="2.58152">
        <ele>557.2214355</ele>
        <time>2014-01-11T08:52:02Z</time>
      </trkpt>
      <trkpt lat="44.34239" lon="2.58154">
        <ele>558.1828613</ele>
        <time>2014-01-11T08:52:07Z</time>
      </trkpt>
      <trkpt lat="44.34226" lon="2.58146">
        <ele>559.6247559</ele>
        <time>2014-01-11T08:52:13Z</time>
      </trkpt>
      <trkpt lat="44.34215" lon="2.58138">
        <ele>560.1052246</ele>
        <time>2014-01-11T08:52:18Z</time>
      </trkpt>
      <trkpt lat="44.34208" lon="2.58131">
        <ele>561.0666504</ele>
        <time>2014-01-11T08:52:22Z</time>
      </trkpt>
      <trkpt lat="44.34201" lon="2.58122">
        <ele>562.0280762</ele>
        <time>2014-01-11T08:52:26Z</time>
      </trkpt>
      <trkpt lat="44.34191" lon="2.58111">
        <ele>562.9892578</ele>
        <time>2014-01-11T08:52:31Z</time>
      </trkpt>
      <trkpt lat="44.34182" lon="2.58101">
        <ele>563.4699707</ele>
        <time>2014-01-11T08:52:36Z</time>
      </trkpt>
      <trkpt lat="44.34171" lon="2.58089">
        <ele>564.9118652</ele>
        <time>2014-01-11T08:52:42Z</time>
      </trkpt>
      <trkpt lat="44.34169" lon="2.58087">
        <ele>564.9118652</ele>
        <time>2014-01-11T08:52:43Z</time>
      </trkpt>
      <trkpt lat="44.34161" lon="2.58086">
        <ele>565.873291</ele>
        <time>2014-01-11T08:52:47Z</time>
      </trkpt>
      <trkpt lat="44.34156" lon="2.58098">
        <ele>565.873291</ele>
        <time>2014-01-11T08:52:52Z</time>
      </trkpt>
      <trkpt lat="44.34157" lon="2.58104">
        <ele>565.873291</ele>
        <time>2014-01-11T08:52:54Z</time>
      </trkpt>
      <trkpt lat="44.34163" lon="2.58117">
        <ele>566.3537598</ele>
        <time>2014-01-11T08:52:59Z</time>
      </trkpt>
      <trkpt lat="44.34168" lon="2.58134">
        <ele>566.8344727</ele>
        <time>2014-01-11T08:53:05Z</time>
      </trkpt>
      <trkpt lat="44.34163" lon="2.58154">
        <ele>567.7956543</ele>
        <time>2014-01-11T08:53:12Z</time>
      </trkpt>
      <trkpt lat="44.34151" lon="2.58167">
        <ele>569.237793</ele>
        <time>2014-01-11T08:53:19Z</time>
      </trkpt>
      <trkpt lat="44.34145" lon="2.5817">
        <ele>570.1989746</ele>
        <time>2014-01-11T08:53:22Z</time>
      </trkpt>
      <trkpt lat="44.34137" lon="2.58172">
        <ele>571.1604004</ele>
        <time>2014-01-11T08:53:26Z</time>
      </trkpt>
      <trkpt lat="44.34127" lon="2.58177">
        <ele>572.1218262</ele>
        <time>2014-01-11T08:53:31Z</time>
      </trkpt>
      <trkpt lat="44.34121" lon="2.58183">
        <ele>571.6408691</ele>
        <time>2014-01-11T08:53:34Z</time>
      </trkpt>
      <trkpt lat="44.34114" lon="2.58196">
        <ele>571.6408691</ele>
        <time>2014-01-11T08:53:40Z</time>
      </trkpt>
      <trkpt lat="44.34112" lon="2.58209">
        <ele>573.5639648</ele>
        <time>2014-01-11T08:53:45Z</time>
      </trkpt>
      <trkpt lat="44.34112" lon="2.58212">
        <ele>574.0444336</ele>
        <time>2014-01-11T08:53:46Z</time>
      </trkpt>
      <trkpt lat="44.34116" lon="2.58216">
        <ele>574.5251465</ele>
        <time>2014-01-11T08:53:50Z</time>
      </trkpt>
      <trkpt lat="44.34119" lon="2.58223">
        <ele>575.0058594</ele>
        <time>2014-01-11T08:53:55Z</time>
      </trkpt>
      <trkpt lat="44.34121" lon="2.58235">
        <ele>575.0058594</ele>
        <time>2014-01-11T08:54:03Z</time>
      </trkpt>
      <trkpt lat="44.3412" lon="2.58238">
        <ele>575.0058594</ele>
        <time>2014-01-11T08:54:04Z</time>
      </trkpt>
      <trkpt lat="44.3412" lon="2.58256">
        <ele>574.5251465</ele>
        <time>2014-01-11T08:54:10Z</time>
      </trkpt>
      <trkpt lat="44.34119" lon="2.5827">
        <ele>574.5251465</ele>
        <time>2014-01-11T08:54:15Z</time>
      </trkpt>
      <trkpt lat="44.34113" lon="2.58281">
        <ele>574.5251465</ele>
        <time>2014-01-11T08:54:20Z</time>
      </trkpt>
      <trkpt lat="44.34109" lon="2.5829">
        <ele>575.0058594</ele>
        <time>2014-01-11T08:54:24Z</time>
      </trkpt>
      <trkpt lat="44.34105" lon="2.58309">
        <ele>574.0444336</ele>
        <time>2014-01-11T08:54:30Z</time>
      </trkpt>
      <trkpt lat="44.34103" lon="2.58327">
        <ele>571.6408691</ele>
        <time>2014-01-11T08:54:35Z</time>
      </trkpt>
      <trkpt lat="44.341" lon="2.58348">
        <ele>570.1989746</ele>
        <time>2014-01-11T08:54:41Z</time>
      </trkpt>
      <trkpt lat="44.34094" lon="2.58366">
        <ele>569.7185059</ele>
        <time>2014-01-11T08:54:46Z</time>
      </trkpt>
      <trkpt lat="44.3409" lon="2.58384">
        <ele>568.7570801</ele>
        <time>2014-01-11T08:54:51Z</time>
      </trkpt>
      <trkpt lat="44.34086" lon="2.58411">
        <ele>567.7956543</ele>
        <time>2014-01-11T08:54:58Z</time>
      </trkpt>
      <trkpt lat="44.34082" lon="2.5843">
        <ele>565.3925781</ele>
        <time>2014-01-11T08:55:03Z</time>
      </trkpt>
      <trkpt lat="44.34077" lon="2.58451">
        <ele>562.0280762</ele>
        <time>2014-01-11T08:55:09Z</time>
      </trkpt>
      <trkpt lat="44.3408" lon="2.58449">
        <ele>559.144043</ele>
        <time>2014-01-11T08:55:13Z</time>
      </trkpt>
      <trkpt lat="44.34083" lon="2.58444">
        <ele>557.7021484</ele>
        <time>2014-01-11T08:55:15Z</time>
      </trkpt>
      <trkpt lat="44.34092" lon="2.58428">
        <ele>549.5307617</ele>
        <time>2014-01-11T08:55:21Z</time>
      </trkpt>
      <trkpt lat="44.34101" lon="2.58409">
        <ele>544.7242432</ele>
        <time>2014-01-11T08:55:27Z</time>
      </trkpt>
      <trkpt lat="44.34106" lon="2.58402">
        <ele>542.8015137</ele>
        <time>2014-01-11T08:55:30Z</time>
      </trkpt>
      <trkpt lat="44.34119" lon="2.5839">
        <ele>539.4368896</ele>
        <time>2014-01-11T08:55:36Z</time>
      </trkpt>
      <trkpt lat="44.34129" lon="2.58386">
        <ele>537.0336914</ele>
        <time>2014-01-11T08:55:40Z</time>
      </trkpt>
      <trkpt lat="44.34134" lon="2.58393">
        <ele>535.5915527</ele>
        <time>2014-01-11T08:55:44Z</time>
      </trkpt>
      <trkpt lat="44.34132" lon="2.58401">
        <ele>535.1109619</ele>
        <time>2014-01-11T08:55:47Z</time>
      </trkpt>
      <trkpt lat="44.34123" lon="2.58416">
        <ele>532.2270508</ele>
        <time>2014-01-11T08:55:53Z</time>
      </trkpt>
      <trkpt lat="44.34118" lon="2.58431">
        <ele>534.1496582</ele>
        <time>2014-01-11T08:55:58Z</time>
      </trkpt>
      <trkpt lat="44.34109" lon="2.58453">
        <ele>537.0336914</ele>
        <time>2014-01-11T08:56:05Z</time>
      </trkpt>
      <trkpt lat="44.34104" lon="2.58477">
        <ele>540.8789063</ele>
        <time>2014-01-11T08:56:12Z</time>
      </trkpt>
      <trkpt lat="44.341" lon="2.585">
        <ele>542.3209229</ele>
        <time>2014-01-11T08:56:18Z</time>
      </trkpt>
      <trkpt lat="44.34095" lon="2.5852">
        <ele>542.3209229</ele>
        <time>2014-01-11T08:56:24Z</time>
      </trkpt>
      <trkpt lat="44.34089" lon="2.58545">
        <ele>543.7628174</ele>
        <time>2014-01-11T08:56:31Z</time>
      </trkpt>
      <trkpt lat="44.34085" lon="2.58564">
        <ele>545.204834</ele>
        <time>2014-01-11T08:56:38Z</time>
      </trkpt>
      <trkpt lat="44.34082" lon="2.58578">
        <ele>546.1662598</ele>
        <time>2014-01-11T08:56:43Z</time>
      </trkpt>
      <trkpt lat="44.34077" lon="2.58598">
        <ele>544.2436523</ele>
        <time>2014-01-11T08:56:49Z</time>
      </trkpt>
      <trkpt lat="44.34069" lon="2.58612">
        <ele>541.3594971</ele>
        <time>2014-01-11T08:56:54Z</time>
      </trkpt>
      <trkpt lat="44.3406" lon="2.58624">
        <ele>538.9562988</ele>
        <time>2014-01-11T08:56:59Z</time>
      </trkpt>
      <trkpt lat="44.34045" lon="2.58637">
        <ele>534.6303711</ele>
        <time>2014-01-11T08:57:06Z</time>
      </trkpt>
      <trkpt lat="44.34029" lon="2.58649">
        <ele>535.1109619</ele>
        <time>2014-01-11T08:57:12Z</time>
      </trkpt>
      <trkpt lat="44.3402" lon="2.58655">
        <ele>536.5531006</ele>
        <time>2014-01-11T08:57:15Z</time>
      </trkpt>
      <trkpt lat="44.34006" lon="2.58652">
        <ele>534.1496582</ele>
        <time>2014-01-11T08:57:21Z</time>
      </trkpt>
      <trkpt lat="44.34002" lon="2.58649">
        <ele>533.6689453</ele>
        <time>2014-01-11T08:57:23Z</time>
      </trkpt>
      <trkpt lat="44.33989" lon="2.58633">
        <ele>532.7077637</ele>
        <time>2014-01-11T08:57:29Z</time>
      </trkpt>
      <trkpt lat="44.33981" lon="2.5862">
        <ele>532.2270508</ele>
        <time>2014-01-11T08:57:33Z</time>
      </trkpt>
      <trkpt lat="44.33974" lon="2.58604">
        <ele>531.2657471</ele>
        <time>2014-01-11T08:57:38Z</time>
      </trkpt>
      <trkpt lat="44.33972" lon="2.58596">
        <ele>532.7077637</ele>
        <time>2014-01-11T08:57:41Z</time>
      </trkpt>
      <trkpt lat="44.33967" lon="2.58586">
        <ele>533.1883545</ele>
        <time>2014-01-11T08:57:47Z</time>
      </trkpt>
      <trkpt lat="44.33961" lon="2.58578">
        <ele>534.1496582</ele>
        <time>2014-01-11T08:57:51Z</time>
      </trkpt>
      <trkpt lat="44.33952" lon="2.58564">
        <ele>534.6303711</ele>
        <time>2014-01-11T08:57:56Z</time>
      </trkpt>
      <trkpt lat="44.33947" lon="2.58552">
        <ele>535.1109619</ele>
        <time>2014-01-11T08:58:00Z</time>
      </trkpt>
      <trkpt lat="44.3394" lon="2.5854">
        <ele>536.0723877</ele>
        <time>2014-01-11T08:58:05Z</time>
      </trkpt>
      <trkpt lat="44.33928" lon="2.58525">
        <ele>538.9562988</ele>
        <time>2014-01-11T08:58:10Z</time>
      </trkpt>
      <trkpt lat="44.33919" lon="2.58509">
        <ele>538.9562988</ele>
        <time>2014-01-11T08:58:16Z</time>
      </trkpt>
      <trkpt lat="44.33912" lon="2.58498">
        <ele>540.8789063</ele>
        <time>2014-01-11T08:58:21Z</time>
      </trkpt>
      <trkpt lat="44.3391" lon="2.58496">
        <ele>540.8789063</ele>
        <time>2014-01-11T08:58:22Z</time>
      </trkpt>
      <trkpt lat="44.33902" lon="2.58494">
        <ele>542.3209229</ele>
        <time>2014-01-11T08:58:25Z</time>
      </trkpt>
      <trkpt lat="44.33889" lon="2.5849">
        <ele>542.8015137</ele>
        <time>2014-01-11T08:58:30Z</time>
      </trkpt>
      <trkpt lat="44.33886" lon="2.58489">
        <ele>542.8015137</ele>
        <time>2014-01-11T08:58:31Z</time>
      </trkpt>
      <trkpt lat="44.33874" lon="2.58491">
        <ele>543.7628174</ele>
        <time>2014-01-11T08:58:36Z</time>
      </trkpt>
      <trkpt lat="44.33863" lon="2.58496">
        <ele>545.204834</ele>
        <time>2014-01-11T08:58:41Z</time>
      </trkpt>
      <trkpt lat="44.33856" lon="2.58501">
        <ele>545.204834</ele>
        <time>2014-01-11T08:58:44Z</time>
      </trkpt>
      <trkpt lat="44.33841" lon="2.58512">
        <ele>546.1662598</ele>
        <time>2014-01-11T08:58:51Z</time>
      </trkpt>
      <trkpt lat="44.3383" lon="2.58523">
        <ele>548.5693359</ele>
        <time>2014-01-11T08:58:57Z</time>
      </trkpt>
      <trkpt lat="44.33821" lon="2.58534">
        <ele>550.4921875</ele>
        <time>2014-01-11T08:59:02Z</time>
      </trkpt>
      <trkpt lat="44.33813" lon="2.58545">
        <ele>554.3374023</ele>
        <time>2014-01-11T08:59:07Z</time>
      </trkpt>
      <trkpt lat="44.33803" lon="2.58558">
        <ele>557.7021484</ele>
        <time>2014-01-11T08:59:12Z</time>
      </trkpt>
      <trkpt lat="44.33794" lon="2.58571">
        <ele>559.6247559</ele>
        <time>2014-01-11T08:59:17Z</time>
      </trkpt>
      <trkpt lat="44.33782" lon="2.58586">
        <ele>560.1052246</ele>
        <time>2014-01-11T08:59:23Z</time>
      </trkpt>
      <trkpt lat="44.33771" lon="2.58602">
        <ele>562.5085449</ele>
        <time>2014-01-11T08:59:29Z</time>
      </trkpt>
      <trkpt lat="44.33764" lon="2.58618">
        <ele>563.9504395</ele>
        <time>2014-01-11T08:59:35Z</time>
      </trkpt>
      <trkpt lat="44.33756" lon="2.58637">
        <ele>565.3925781</ele>
        <time>2014-01-11T08:59:41Z</time>
      </trkpt>
      <trkpt lat="44.33748" lon="2.58657">
        <ele>559.144043</ele>
        <time>2014-01-11T08:59:48Z</time>
      </trkpt>
      <trkpt lat="44.33742" lon="2.58669">
        <ele>557.2214355</ele>
        <time>2014-01-11T08:59:52Z</time>
      </trkpt>
      <trkpt lat="44.33733" lon="2.58688">
        <ele>556.7407227</ele>
        <time>2014-01-11T08:59:58Z</time>
      </trkpt>
      <trkpt lat="44.33722" lon="2.58704">
        <ele>554.8178711</ele>
        <time>2014-01-11T09:00:04Z</time>
      </trkpt>
      <trkpt lat="44.33713" lon="2.58719">
        <ele>553.8566895</ele>
        <time>2014-01-11T09:00:09Z</time>
      </trkpt>
      <trkpt lat="44.33701" lon="2.5873">
        <ele>550.0114746</ele>
        <time>2014-01-11T09:00:14Z</time>
      </trkpt>
      <trkpt lat="44.3369" lon="2.58741">
        <ele>548.0888672</ele>
        <time>2014-01-11T09:00:19Z</time>
      </trkpt>
      <trkpt lat="44.33679" lon="2.5875">
        <ele>547.1274414</ele>
        <time>2014-01-11T09:00:24Z</time>
      </trkpt>
      <trkpt lat="44.33667" lon="2.5876">
        <ele>546.1662598</ele>
        <time>2014-01-11T09:00:29Z</time>
      </trkpt>
      <trkpt lat="44.33658" lon="2.58767">
        <ele>545.6855469</ele>
        <time>2014-01-11T09:00:33Z</time>
      </trkpt>
      <trkpt lat="44.33647" lon="2.58776">
        <ele>545.204834</ele>
        <time>2014-01-11T09:00:38Z</time>
      </trkpt>
      <trkpt lat="44.33629" lon="2.58784">
        <ele>545.204834</ele>
        <time>2014-01-11T09:00:45Z</time>
      </trkpt>
      <trkpt lat="44.33617" lon="2.58777">
        <ele>544.7242432</ele>
        <time>2014-01-11T09:00:50Z</time>
      </trkpt>
      <trkpt lat="44.33612" lon="2.58776">
        <ele>545.6855469</ele>
        <time>2014-01-11T09:00:52Z</time>
      </trkpt>
      <trkpt lat="44.33598" lon="2.58778">
        <ele>547.6081543</ele>
        <time>2014-01-11T09:00:58Z</time>
      </trkpt>
      <trkpt lat="44.33593" lon="2.58774">
        <ele>547.6081543</ele>
        <time>2014-01-11T09:01:00Z</time>
      </trkpt>
      <trkpt lat="44.3359" lon="2.58756">
        <ele>548.0888672</ele>
        <time>2014-01-11T09:01:05Z</time>
      </trkpt>
      <trkpt lat="44.33589" lon="2.58751">
        <ele>549.0500488</ele>
        <time>2014-01-11T09:01:07Z</time>
      </trkpt>
      <trkpt lat="44.33584" lon="2.58749">
        <ele>549.0500488</ele>
        <time>2014-01-11T09:01:11Z</time>
      </trkpt>
      <trkpt lat="44.33582" lon="2.58762">
        <ele>549.0500488</ele>
        <time>2014-01-11T09:01:16Z</time>
      </trkpt>
      <trkpt lat="44.33581" lon="2.58772">
        <ele>550.0114746</ele>
        <time>2014-01-11T09:01:19Z</time>
      </trkpt>
      <trkpt lat="44.33573" lon="2.58777">
        <ele>551.934082</ele>
        <time>2014-01-11T09:01:24Z</time>
      </trkpt>
      <trkpt lat="44.33571" lon="2.58775">
        <ele>551.4533691</ele>
        <time>2014-01-11T09:01:25Z</time>
      </trkpt>
      <trkpt lat="44.33568" lon="2.58771">
        <ele>551.4533691</ele>
        <time>2014-01-11T09:01:27Z</time>
      </trkpt>
      <trkpt lat="44.33561" lon="2.58757">
        <ele>551.934082</ele>
        <time>2014-01-11T09:01:33Z</time>
      </trkpt>
      <trkpt lat="44.3356" lon="2.58755">
        <ele>551.934082</ele>
        <time>2014-01-11T09:01:34Z</time>
      </trkpt>
      <trkpt lat="44.33555" lon="2.58758">
        <ele>552.4145508</ele>
        <time>2014-01-11T09:01:38Z</time>
      </trkpt>
      <trkpt lat="44.33552" lon="2.58767">
        <ele>553.8566895</ele>
        <time>2014-01-11T09:01:44Z</time>
      </trkpt>
      <trkpt lat="44.33551" lon="2.5877">
        <ele>554.3374023</ele>
        <time>2014-01-11T09:01:45Z</time>
      </trkpt>
      <trkpt lat="44.33542" lon="2.58785">
        <ele>556.7407227</ele>
        <time>2014-01-11T09:01:51Z</time>
      </trkpt>
      <trkpt lat="44.33534" lon="2.58801">
        <ele>557.7021484</ele>
        <time>2014-01-11T09:01:56Z</time>
      </trkpt>
      <trkpt lat="44.33528" lon="2.58816">
        <ele>559.144043</ele>
        <time>2014-01-11T09:02:01Z</time>
      </trkpt>
      <trkpt lat="44.33524" lon="2.58835">
        <ele>560.5859375</ele>
        <time>2014-01-11T09:02:07Z</time>
      </trkpt>
      <trkpt lat="44.33521" lon="2.58857">
        <ele>561.5473633</ele>
        <time>2014-01-11T09:02:13Z</time>
      </trkpt>
      <trkpt lat="44.33521" lon="2.5886">
        <ele>561.5473633</ele>
        <time>2014-01-11T09:02:14Z</time>
      </trkpt>
      <trkpt lat="44.33532" lon="2.58871">
        <ele>558.6633301</ele>
        <time>2014-01-11T09:02:20Z</time>
      </trkpt>
      <trkpt lat="44.33539" lon="2.58873">
        <ele>555.7792969</ele>
        <time>2014-01-11T09:02:24Z</time>
      </trkpt>
      <trkpt lat="44.33545" lon="2.58868">
        <ele>555.298584</ele>
        <time>2014-01-11T09:02:28Z</time>
      </trkpt>
      <trkpt lat="44.33551" lon="2.58859">
        <ele>555.7792969</ele>
        <time>2014-01-11T09:02:33Z</time>
      </trkpt>
      <trkpt lat="44.33555" lon="2.5886">
        <ele>556.2600098</ele>
        <time>2014-01-11T09:02:36Z</time>
      </trkpt>
      <trkpt lat="44.33549" lon="2.58869">
        <ele>555.7792969</ele>
        <time>2014-01-11T09:02:40Z</time>
      </trkpt>
      <trkpt lat="44.33538" lon="2.58891">
        <ele>557.2214355</ele>
        <time>2014-01-11T09:02:48Z</time>
      </trkpt>
      <trkpt lat="44.33533" lon="2.58906">
        <ele>560.5859375</ele>
        <time>2014-01-11T09:02:53Z</time>
      </trkpt>
      <trkpt lat="44.33527" lon="2.58922">
        <ele>562.5085449</ele>
        <time>2014-01-11T09:02:58Z</time>
      </trkpt>
      <trkpt lat="44.33521" lon="2.58939">
        <ele>562.0280762</ele>
        <time>2014-01-11T09:03:03Z</time>
      </trkpt>
      <trkpt lat="44.33514" lon="2.58956">
        <ele>562.9892578</ele>
        <time>2014-01-11T09:03:09Z</time>
      </trkpt>
      <trkpt lat="44.33504" lon="2.58976">
        <ele>563.4699707</ele>
        <time>2014-01-11T09:03:16Z</time>
      </trkpt>
      <trkpt lat="44.33497" lon="2.58989">
        <ele>562.0280762</ele>
        <time>2014-01-11T09:03:21Z</time>
      </trkpt>
      <trkpt lat="44.33491" lon="2.59003">
        <ele>561.0666504</ele>
        <time>2014-01-11T09:03:26Z</time>
      </trkpt>
      <trkpt lat="44.33486" lon="2.59019">
        <ele>560.5859375</ele>
        <time>2014-01-11T09:03:31Z</time>
      </trkpt>
      <trkpt lat="44.33482" lon="2.59039">
        <ele>561.5473633</ele>
        <time>2014-01-11T09:03:37Z</time>
      </trkpt>
      <trkpt lat="44.33479" lon="2.59057">
        <ele>562.0280762</ele>
        <time>2014-01-11T09:03:42Z</time>
      </trkpt>
      <trkpt lat="44.33479" lon="2.59073">
        <ele>562.0280762</ele>
        <time>2014-01-11T09:03:47Z</time>
      </trkpt>
      <trkpt lat="44.33479" lon="2.59091">
        <ele>563.4699707</ele>
        <time>2014-01-11T09:03:52Z</time>
      </trkpt>
      <trkpt lat="44.33479" lon="2.59109">
        <ele>564.4311523</ele>
        <time>2014-01-11T09:03:57Z</time>
      </trkpt>
      <trkpt lat="44.33477" lon="2.5913">
        <ele>565.873291</ele>
        <time>2014-01-11T09:04:03Z</time>
      </trkpt>
      <trkpt lat="44.33476" lon="2.59148">
        <ele>566.8344727</ele>
        <time>2014-01-11T09:04:08Z</time>
      </trkpt>
      <trkpt lat="44.33475" lon="2.59169">
        <ele>569.237793</ele>
        <time>2014-01-11T09:04:14Z</time>
      </trkpt>
      <trkpt lat="44.33474" lon="2.59189">
        <ele>570.1989746</ele>
        <time>2014-01-11T09:04:19Z</time>
      </trkpt>
      <trkpt lat="44.33475" lon="2.59211">
        <ele>570.6796875</ele>
        <time>2014-01-11T09:04:25Z</time>
      </trkpt>
      <trkpt lat="44.33477" lon="2.59229">
        <ele>570.1989746</ele>
        <time>2014-01-11T09:04:30Z</time>
      </trkpt>
      <trkpt lat="44.33481" lon="2.59252">
        <ele>568.7570801</ele>
        <time>2014-01-11T09:04:36Z</time>
      </trkpt>
      <trkpt lat="44.33483" lon="2.5927">
        <ele>568.2763672</ele>
        <time>2014-01-11T09:04:41Z</time>
      </trkpt>
      <trkpt lat="44.33485" lon="2.59287">
        <ele>568.7570801</ele>
        <time>2014-01-11T09:04:46Z</time>
      </trkpt>
      <trkpt lat="44.33489" lon="2.59308">
        <ele>568.7570801</ele>
        <time>2014-01-11T09:04:52Z</time>
      </trkpt>
      <trkpt lat="44.3349" lon="2.59328">
        <ele>568.2763672</ele>
        <time>2014-01-11T09:04:58Z</time>
      </trkpt>
      <trkpt lat="44.33491" lon="2.59348">
        <ele>569.237793</ele>
        <time>2014-01-11T09:05:04Z</time>
      </trkpt>
      <trkpt lat="44.33491" lon="2.59365">
        <ele>569.237793</ele>
        <time>2014-01-11T09:05:09Z</time>
      </trkpt>
      <trkpt lat="44.3349" lon="2.59386">
        <ele>570.6796875</ele>
        <time>2014-01-11T09:05:15Z</time>
      </trkpt>
      <trkpt lat="44.33489" lon="2.59415">
        <ele>572.6025391</ele>
        <time>2014-01-11T09:05:23Z</time>
      </trkpt>
      <trkpt lat="44.3349" lon="2.5944">
        <ele>572.1218262</ele>
        <time>2014-01-11T09:05:30Z</time>
      </trkpt>
      <trkpt lat="44.33492" lon="2.59457">
        <ele>571.1604004</ele>
        <time>2014-01-11T09:05:35Z</time>
      </trkpt>
      <trkpt lat="44.33495" lon="2.59473">
        <ele>569.7185059</ele>
        <time>2014-01-11T09:05:40Z</time>
      </trkpt>
      <trkpt lat="44.335" lon="2.59492">
        <ele>568.7570801</ele>
        <time>2014-01-11T09:05:46Z</time>
      </trkpt>
      <trkpt lat="44.33506" lon="2.5951">
        <ele>568.2763672</ele>
        <time>2014-01-11T09:05:52Z</time>
      </trkpt>
      <trkpt lat="44.33513" lon="2.59529">
        <ele>566.8344727</ele>
        <time>2014-01-11T09:05:58Z</time>
      </trkpt>
      <trkpt lat="44.33518" lon="2.59548">
        <ele>564.9118652</ele>
        <time>2014-01-11T09:06:04Z</time>
      </trkpt>
      <trkpt lat="44.33522" lon="2.59567">
        <ele>564.4311523</ele>
        <time>2014-01-11T09:06:10Z</time>
      </trkpt>
      <trkpt lat="44.33524" lon="2.59584">
        <ele>564.4311523</ele>
        <time>2014-01-11T09:06:15Z</time>
      </trkpt>
      <trkpt lat="44.33525" lon="2.59597">
        <ele>564.4311523</ele>
        <time>2014-01-11T09:06:19Z</time>
      </trkpt>
      <trkpt lat="44.33526" lon="2.59614">
        <ele>564.9118652</ele>
        <time>2014-01-11T09:06:24Z</time>
      </trkpt>
      <trkpt lat="44.33529" lon="2.59628">
        <ele>565.873291</ele>
        <time>2014-01-11T09:06:28Z</time>
      </trkpt>
      <trkpt lat="44.33534" lon="2.59645">
        <ele>568.2763672</ele>
        <time>2014-01-11T09:06:33Z</time>
      </trkpt>
      <trkpt lat="44.33539" lon="2.59661">
        <ele>568.7570801</ele>
        <time>2014-01-11T09:06:38Z</time>
      </trkpt>
      <trkpt lat="44.33546" lon="2.59678">
        <ele>567.7956543</ele>
        <time>2014-01-11T09:06:44Z</time>
      </trkpt>
      <trkpt lat="44.33555" lon="2.59695">
        <ele>568.7570801</ele>
        <time>2014-01-11T09:06:50Z</time>
      </trkpt>
      <trkpt lat="44.33561" lon="2.59709">
        <ele>568.7570801</ele>
        <time>2014-01-11T09:06:55Z</time>
      </trkpt>
      <trkpt lat="44.33572" lon="2.59727">
        <ele>569.7185059</ele>
        <time>2014-01-11T09:07:02Z</time>
      </trkpt>
      <trkpt lat="44.33579" lon="2.5974">
        <ele>569.7185059</ele>
        <time>2014-01-11T09:07:07Z</time>
      </trkpt>
      <trkpt lat="44.33587" lon="2.59758">
        <ele>569.7185059</ele>
        <time>2014-01-11T09:07:13Z</time>
      </trkpt>
      <trkpt lat="44.33593" lon="2.59775">
        <ele>569.7185059</ele>
        <time>2014-01-11T09:07:18Z</time>
      </trkpt>
      <trkpt lat="44.33599" lon="2.59794">
        <ele>570.1989746</ele>
        <time>2014-01-11T09:07:24Z</time>
      </trkpt>
      <trkpt lat="44.33601" lon="2.59812">
        <ele>571.6408691</ele>
        <time>2014-01-11T09:07:29Z</time>
      </trkpt>
      <trkpt lat="44.336" lon="2.59836">
        <ele>575.0058594</ele>
        <time>2014-01-11T09:07:36Z</time>
      </trkpt>
      <trkpt lat="44.33599" lon="2.59859">
        <ele>579.331543</ele>
        <time>2014-01-11T09:07:42Z</time>
      </trkpt>
      <trkpt lat="44.33598" lon="2.59879">
        <ele>580.2929688</ele>
        <time>2014-01-11T09:07:48Z</time>
      </trkpt>
      <trkpt lat="44.33597" lon="2.59899">
        <ele>580.2929688</ele>
        <time>2014-01-11T09:07:54Z</time>
      </trkpt>
      <trkpt lat="44.33595" lon="2.59919">
        <ele>580.2929688</ele>
        <time>2014-01-11T09:08:00Z</time>
      </trkpt>
      <trkpt lat="44.33593" lon="2.5994">
        <ele>579.331543</ele>
        <time>2014-01-11T09:08:06Z</time>
      </trkpt>
      <trkpt lat="44.33592" lon="2.59954">
        <ele>578.8510742</ele>
        <time>2014-01-11T09:08:10Z</time>
      </trkpt>
      <trkpt lat="44.33589" lon="2.59976">
        <ele>578.8510742</ele>
        <time>2014-01-11T09:08:16Z</time>
      </trkpt>
      <trkpt lat="44.33588" lon="2.59993">
        <ele>578.3703613</ele>
        <time>2014-01-11T09:08:21Z</time>
      </trkpt>
      <trkpt lat="44.33587" lon="2.60003">
        <ele>577.8896484</ele>
        <time>2014-01-11T09:08:24Z</time>
      </trkpt>
      <trkpt lat="44.3359" lon="2.60023">
        <ele>577.8896484</ele>
        <time>2014-01-11T09:08:30Z</time>
      </trkpt>
      <trkpt lat="44.33591" lon="2.6004">
        <ele>577.8896484</ele>
        <time>2014-01-11T09:08:35Z</time>
      </trkpt>
      <trkpt lat="44.33595" lon="2.60061">
        <ele>578.3703613</ele>
        <time>2014-01-11T09:08:41Z</time>
      </trkpt>
      <trkpt lat="44.33601" lon="2.6008">
        <ele>578.3703613</ele>
        <time>2014-01-11T09:08:47Z</time>
      </trkpt>
      <trkpt lat="44.33609" lon="2.60098">
        <ele>577.8896484</ele>
        <time>2014-01-11T09:08:53Z</time>
      </trkpt>
      <trkpt lat="44.33616" lon="2.6011">
        <ele>576.9284668</ele>
        <time>2014-01-11T09:08:57Z</time>
      </trkpt>
      <trkpt lat="44.33626" lon="2.60126">
        <ele>575.967041</ele>
        <time>2014-01-11T09:09:03Z</time>
      </trkpt>
      <trkpt lat="44.33634" lon="2.6014">
        <ele>575.4863281</ele>
        <time>2014-01-11T09:09:08Z</time>
      </trkpt>
      <trkpt lat="44.33642" lon="2.60156">
        <ele>575.4863281</ele>
        <time>2014-01-11T09:09:13Z</time>
      </trkpt>
      <trkpt lat="44.33647" lon="2.60172">
        <ele>575.967041</ele>
        <time>2014-01-11T09:09:18Z</time>
      </trkpt>
      <trkpt lat="44.33652" lon="2.60188">
        <ele>575.967041</ele>
        <time>2014-01-11T09:09:23Z</time>
      </trkpt>
      <trkpt lat="44.33656" lon="2.60209">
        <ele>576.9284668</ele>
        <time>2014-01-11T09:09:29Z</time>
      </trkpt>
      <trkpt lat="44.3366" lon="2.6023">
        <ele>577.8896484</ele>
        <time>2014-01-11T09:09:35Z</time>
      </trkpt>
      <trkpt lat="44.33664" lon="2.60255">
        <ele>578.3703613</ele>
        <time>2014-01-11T09:09:42Z</time>
      </trkpt>
      <trkpt lat="44.33666" lon="2.60269">
        <ele>578.8510742</ele>
        <time>2014-01-11T09:09:46Z</time>
      </trkpt>
      <trkpt lat="44.33669" lon="2.60286">
        <ele>578.8510742</ele>
        <time>2014-01-11T09:09:51Z</time>
      </trkpt>
      <trkpt lat="44.33672" lon="2.60306">
        <ele>579.331543</ele>
        <time>2014-01-11T09:09:57Z</time>
      </trkpt>
      <trkpt lat="44.33677" lon="2.60318">
        <ele>580.2929688</ele>
        <time>2014-01-11T09:10:01Z</time>
      </trkpt>
      <trkpt lat="44.33679" lon="2.60332">
        <ele>581.7348633</ele>
        <time>2014-01-11T09:10:05Z</time>
      </trkpt>
      <trkpt lat="44.33677" lon="2.60355">
        <ele>584.6188965</ele>
        <time>2014-01-11T09:10:11Z</time>
      </trkpt>
      <trkpt lat="44.33675" lon="2.60373">
        <ele>585.5800781</ele>
        <time>2014-01-11T09:10:16Z</time>
      </trkpt>
      <trkpt lat="44.33671" lon="2.60391">
        <ele>586.5415039</ele>
        <time>2014-01-11T09:10:21Z</time>
      </trkpt>
      <trkpt lat="44.33668" lon="2.60409">
        <ele>587.5026855</ele>
        <time>2014-01-11T09:10:26Z</time>
      </trkpt>
      <trkpt lat="44.33666" lon="2.60432">
        <ele>588.9450684</ele>
        <time>2014-01-11T09:10:32Z</time>
      </trkpt>
      <trkpt lat="44.33663" lon="2.60457">
        <ele>588.9450684</ele>
        <time>2014-01-11T09:10:39Z</time>
      </trkpt>
      <trkpt lat="44.33658" lon="2.60478">
        <ele>587.9833984</ele>
        <time>2014-01-11T09:10:45Z</time>
      </trkpt>
      <trkpt lat="44.33651" lon="2.60502">
        <ele>587.5026855</ele>
        <time>2014-01-11T09:10:52Z</time>
      </trkpt>
      <trkpt lat="44.33641" lon="2.60518">
        <ele>587.0219727</ele>
        <time>2014-01-11T09:10:58Z</time>
      </trkpt>
      <trkpt lat="44.33634" lon="2.60532">
        <ele>586.5415039</ele>
        <time>2014-01-11T09:11:03Z</time>
      </trkpt>
      <trkpt lat="44.33623" lon="2.60549">
        <ele>586.5415039</ele>
        <time>2014-01-11T09:11:09Z</time>
      </trkpt>
      <trkpt lat="44.33612" lon="2.60569">
        <ele>586.060791</ele>
        <time>2014-01-11T09:11:16Z</time>
      </trkpt>
      <trkpt lat="44.33602" lon="2.60589">
        <ele>585.5800781</ele>
        <time>2014-01-11T09:11:22Z</time>
      </trkpt>
      <trkpt lat="44.33598" lon="2.60611">
        <ele>586.5415039</ele>
        <time>2014-01-11T09:11:28Z</time>
      </trkpt>
      <trkpt lat="44.33595" lon="2.60634">
        <ele>587.5026855</ele>
        <time>2014-01-11T09:11:34Z</time>
      </trkpt>
      <trkpt lat="44.33593" lon="2.60656">
        <ele>587.9833984</ele>
        <time>2014-01-11T09:11:40Z</time>
      </trkpt>
      <trkpt lat="44.3359" lon="2.60682">
        <ele>587.9833984</ele>
        <time>2014-01-11T09:11:47Z</time>
      </trkpt>
      <trkpt lat="44.3359" lon="2.60697">
        <ele>587.9833984</ele>
        <time>2014-01-11T09:11:51Z</time>
      </trkpt>
      <trkpt lat="44.33589" lon="2.60719">
        <ele>587.5026855</ele>
        <time>2014-01-11T09:11:57Z</time>
      </trkpt>
      <trkpt lat="44.3359" lon="2.6074">
        <ele>587.5026855</ele>
        <time>2014-01-11T09:12:03Z</time>
      </trkpt>
      <trkpt lat="44.3359" lon="2.60759">
        <ele>587.0219727</ele>
        <time>2014-01-11T09:12:08Z</time>
      </trkpt>
      <trkpt lat="44.33593" lon="2.60781">
        <ele>587.5026855</ele>
        <time>2014-01-11T09:12:14Z</time>
      </trkpt>
      <trkpt lat="44.33598" lon="2.60803">
        <ele>587.0219727</ele>
        <time>2014-01-11T09:12:21Z</time>
      </trkpt>
      <trkpt lat="44.33602" lon="2.60823">
        <ele>586.5415039</ele>
        <time>2014-01-11T09:12:27Z</time>
      </trkpt>
      <trkpt lat="44.33606" lon="2.60839">
        <ele>586.060791</ele>
        <time>2014-01-11T09:12:32Z</time>
      </trkpt>
      <trkpt lat="44.33609" lon="2.60853">
        <ele>585.5800781</ele>
        <time>2014-01-11T09:12:36Z</time>
      </trkpt>
      <trkpt lat="44.33612" lon="2.60865">
        <ele>584.6188965</ele>
        <time>2014-01-11T09:12:40Z</time>
      </trkpt>
      <trkpt lat="44.33614" lon="2.60884">
        <ele>584.6188965</ele>
        <time>2014-01-11T09:12:45Z</time>
      </trkpt>
      <trkpt lat="44.33615" lon="2.60902">
        <ele>587.0219727</ele>
        <time>2014-01-11T09:12:50Z</time>
      </trkpt>
      <trkpt lat="44.33614" lon="2.60921">
        <ele>588.4643555</ele>
        <time>2014-01-11T09:12:55Z</time>
      </trkpt>
      <trkpt lat="44.33608" lon="2.60943">
        <ele>589.4255371</ele>
        <time>2014-01-11T09:13:02Z</time>
      </trkpt>
      <trkpt lat="44.33603" lon="2.6096">
        <ele>589.90625</ele>
        <time>2014-01-11T09:13:07Z</time>
      </trkpt>
      <trkpt lat="44.33596" lon="2.60977">
        <ele>590.8674316</ele>
        <time>2014-01-11T09:13:13Z</time>
      </trkpt>
      <trkpt lat="44.33589" lon="2.60997">
        <ele>591.8288574</ele>
        <time>2014-01-11T09:13:19Z</time>
      </trkpt>
      <trkpt lat="44.33583" lon="2.61012">
        <ele>592.3095703</ele>
        <time>2014-01-11T09:13:24Z</time>
      </trkpt>
      <trkpt lat="44.33589" lon="2.61024">
        <ele>592.7902832</ele>
        <time>2014-01-11T09:13:29Z</time>
      </trkpt>
      <trkpt lat="44.33595" lon="2.61028">
        <ele>593.270752</ele>
        <time>2014-01-11T09:13:31Z</time>
      </trkpt>
      <trkpt lat="44.33607" lon="2.61039">
        <ele>593.7514648</ele>
        <time>2014-01-11T09:13:37Z</time>
      </trkpt>
      <trkpt lat="44.33617" lon="2.61048">
        <ele>592.7902832</ele>
        <time>2014-01-11T09:13:42Z</time>
      </trkpt>
      <trkpt lat="44.3362" lon="2.6105">
        <ele>592.3095703</ele>
        <time>2014-01-11T09:13:43Z</time>
      </trkpt>
      <trkpt lat="44.33625" lon="2.6107">
        <ele>591.8288574</ele>
        <time>2014-01-11T09:13:48Z</time>
      </trkpt>
      <trkpt lat="44.3363" lon="2.61082">
        <ele>591.8288574</ele>
        <time>2014-01-11T09:13:52Z</time>
      </trkpt>
      <trkpt lat="44.33635" lon="2.61098">
        <ele>592.3095703</ele>
        <time>2014-01-11T09:13:57Z</time>
      </trkpt>
      <trkpt lat="44.33636" lon="2.61101">
        <ele>592.3095703</ele>
        <time>2014-01-11T09:13:58Z</time>
      </trkpt>
      <trkpt lat="44.33635" lon="2.61115">
        <ele>594.2321777</ele>
        <time>2014-01-11T09:14:02Z</time>
      </trkpt>
      <trkpt lat="44.33634" lon="2.61121">
        <ele>595.1933594</ele>
        <time>2014-01-11T09:14:04Z</time>
      </trkpt>
      <trkpt lat="44.33634" lon="2.61128">
        <ele>596.1547852</ele>
        <time>2014-01-11T09:14:06Z</time>
      </trkpt>
      <trkpt lat="44.33638" lon="2.61144">
        <ele>596.1547852</ele>
        <time>2014-01-11T09:14:11Z</time>
      </trkpt>
      <trkpt lat="44.33642" lon="2.61161">
        <ele>595.1933594</ele>
        <time>2014-01-11T09:14:17Z</time>
      </trkpt>
      <trkpt lat="44.33647" lon="2.61173">
        <ele>594.2321777</ele>
        <time>2014-01-11T09:14:21Z</time>
      </trkpt>
      <trkpt lat="44.33652" lon="2.61183">
        <ele>593.7514648</ele>
        <time>2014-01-11T09:14:25Z</time>
      </trkpt>
      <trkpt lat="44.33661" lon="2.61197">
        <ele>593.270752</ele>
        <time>2014-01-11T09:14:31Z</time>
      </trkpt>
      <trkpt lat="44.33666" lon="2.61204">
        <ele>592.3095703</ele>
        <time>2014-01-11T09:14:34Z</time>
      </trkpt>
      <trkpt lat="44.33669" lon="2.61208">
        <ele>592.7902832</ele>
        <time>2014-01-11T09:14:36Z</time>
      </trkpt>
      <trkpt lat="44.33672" lon="2.61226">
        <ele>593.7514648</ele>
        <time>2014-01-11T09:14:42Z</time>
      </trkpt>
      <trkpt lat="44.3367" lon="2.61246">
        <ele>596.635498</ele>
        <time>2014-01-11T09:14:48Z</time>
      </trkpt>
      <trkpt lat="44.33665" lon="2.61265">
        <ele>598.5578613</ele>
        <time>2014-01-11T09:14:54Z</time>
      </trkpt>
      <trkpt lat="44.33658" lon="2.61282">
        <ele>599.0385742</ele>
        <time>2014-01-11T09:15:00Z</time>
      </trkpt>
      <trkpt lat="44.33652" lon="2.613">
        <ele>601.4418945</ele>
        <time>2014-01-11T09:15:06Z</time>
      </trkpt>
      <trkpt lat="44.33645" lon="2.61319">
        <ele>601.9226074</ele>
        <time>2014-01-11T09:15:12Z</time>
      </trkpt>
      <trkpt lat="44.33639" lon="2.61335">
        <ele>603.364502</ele>
        <time>2014-01-11T09:15:18Z</time>
      </trkpt>
      <trkpt lat="44.33632" lon="2.61357">
        <ele>604.3261719</ele>
        <time>2014-01-11T09:15:25Z</time>
      </trkpt>
      <trkpt lat="44.33624" lon="2.61382">
        <ele>606.2485352</ele>
        <time>2014-01-11T09:15:33Z</time>
      </trkpt>
      <trkpt lat="44.33619" lon="2.614">
        <ele>606.2485352</ele>
        <time>2014-01-11T09:15:39Z</time>
      </trkpt>
      <trkpt lat="44.33615" lon="2.61419">
        <ele>607.2099609</ele>
        <time>2014-01-11T09:15:45Z</time>
      </trkpt>
      <trkpt lat="44.33609" lon="2.61434">
        <ele>607.2099609</ele>
        <time>2014-01-11T09:15:50Z</time>
      </trkpt>
      <trkpt lat="44.33603" lon="2.61451">
        <ele>608.1713867</ele>
        <time>2014-01-11T09:15:56Z</time>
      </trkpt>
      <trkpt lat="44.33597" lon="2.6147">
        <ele>609.6132813</ele>
        <time>2014-01-11T09:16:02Z</time>
      </trkpt>
      <trkpt lat="44.33588" lon="2.61493">
        <ele>611.0551758</ele>
        <time>2014-01-11T09:16:10Z</time>
      </trkpt>
      <trkpt lat="44.33583" lon="2.6151">
        <ele>612.4970703</ele>
        <time>2014-01-11T09:16:15Z</time>
      </trkpt>
      <trkpt lat="44.33577" lon="2.61529">
        <ele>613.9389648</ele>
        <time>2014-01-11T09:16:21Z</time>
      </trkpt>
      <trkpt lat="44.3357" lon="2.61551">
        <ele>615.3811035</ele>
        <time>2014-01-11T09:16:28Z</time>
      </trkpt>
      <trkpt lat="44.33565" lon="2.6157">
        <ele>617.7841797</ele>
        <time>2014-01-11T09:16:34Z</time>
      </trkpt>
      <trkpt lat="44.33563" lon="2.61578">
        <ele>618.7456055</ele>
        <time>2014-01-11T09:16:37Z</time>
      </trkpt>
      <trkpt lat="44.33561" lon="2.61585">
        <ele>618.7456055</ele>
        <time>2014-01-11T09:16:41Z</time>
      </trkpt>
      <trkpt lat="44.33555" lon="2.61607">
        <ele>619.2263184</ele>
        <time>2014-01-11T09:16:48Z</time>
      </trkpt>
      <trkpt lat="44.3355" lon="2.61625">
        <ele>619.7070313</ele>
        <time>2014-01-11T09:16:54Z</time>
      </trkpt>
      <trkpt lat="44.33546" lon="2.61643">
        <ele>620.668457</ele>
        <time>2014-01-11T09:17:00Z</time>
      </trkpt>
      <trkpt lat="44.33542" lon="2.61664">
        <ele>622.1103516</ele>
        <time>2014-01-11T09:17:07Z</time>
      </trkpt>
      <trkpt lat="44.3354" lon="2.61683">
        <ele>622.5910645</ele>
        <time>2014-01-11T09:17:13Z</time>
      </trkpt>
      <trkpt lat="44.33537" lon="2.61703">
        <ele>622.1103516</ele>
        <time>2014-01-11T09:17:20Z</time>
      </trkpt>
      <trkpt lat="44.33534" lon="2.61722">
        <ele>622.1103516</ele>
        <time>2014-01-11T09:17:26Z</time>
      </trkpt>
      <trkpt lat="44.33532" lon="2.61741">
        <ele>622.1103516</ele>
        <time>2014-01-11T09:17:32Z</time>
      </trkpt>
      <trkpt lat="44.3353" lon="2.6176">
        <ele>623.0717773</ele>
        <time>2014-01-11T09:17:38Z</time>
      </trkpt>
      <trkpt lat="44.3353" lon="2.61777">
        <ele>623.5524902</ele>
        <time>2014-01-11T09:17:44Z</time>
      </trkpt>
      <trkpt lat="44.33531" lon="2.61792">
        <ele>623.5524902</ele>
        <time>2014-01-11T09:17:50Z</time>
      </trkpt>
      <trkpt lat="44.33534" lon="2.61811">
        <ele>624.032959</ele>
        <time>2014-01-11T09:17:57Z</time>
      </trkpt>
      <trkpt lat="44.33535" lon="2.61814">
        <ele>624.032959</ele>
        <time>2014-01-11T09:17:58Z</time>
      </trkpt>
      <trkpt lat="44.3354" lon="2.61833">
        <ele>624.9943848</ele>
        <time>2014-01-11T09:18:05Z</time>
      </trkpt>
      <trkpt lat="44.33548" lon="2.6185">
        <ele>624.9943848</ele>
        <time>2014-01-11T09:18:11Z</time>
      </trkpt>
      <trkpt lat="44.33555" lon="2.61862">
        <ele>624.9943848</ele>
        <time>2014-01-11T09:18:16Z</time>
      </trkpt>
      <trkpt lat="44.33564" lon="2.61872">
        <ele>624.5136719</ele>
        <time>2014-01-11T09:18:21Z</time>
      </trkpt>
      <trkpt lat="44.33575" lon="2.61881">
        <ele>625.9555664</ele>
        <time>2014-01-11T09:18:27Z</time>
      </trkpt>
      <trkpt lat="44.33579" lon="2.61884">
        <ele>626.4362793</ele>
        <time>2014-01-11T09:18:29Z</time>
      </trkpt>
      <trkpt lat="44.33595" lon="2.61893">
        <ele>626.9169922</ele>
        <time>2014-01-11T09:18:36Z</time>
      </trkpt>
      <trkpt lat="44.33603" lon="2.61899">
        <ele>627.3977051</ele>
        <time>2014-01-11T09:18:40Z</time>
      </trkpt>
      <trkpt lat="44.33615" lon="2.61905">
        <ele>628.3588867</ele>
        <time>2014-01-11T09:18:45Z</time>
      </trkpt>
      <trkpt lat="44.33629" lon="2.61914">
        <ele>629.8007813</ele>
        <time>2014-01-11T09:18:51Z</time>
      </trkpt>
      <trkpt lat="44.33646" lon="2.61925">
        <ele>630.2814941</ele>
        <time>2014-01-11T09:18:58Z</time>
      </trkpt>
      <trkpt lat="44.33659" lon="2.61938">
        <ele>630.2814941</ele>
        <time>2014-01-11T09:19:04Z</time>
      </trkpt>
      <trkpt lat="44.33671" lon="2.61955">
        <ele>630.762207</ele>
        <time>2014-01-11T09:19:11Z</time>
      </trkpt>
      <trkpt lat="44.33679" lon="2.61973">
        <ele>632.6848145</ele>
        <time>2014-01-11T09:19:17Z</time>
      </trkpt>
      <trkpt lat="44.33682" lon="2.61987">
        <ele>634.126709</ele>
        <time>2014-01-11T09:19:21Z</time>
      </trkpt>
      <trkpt lat="44.33687" lon="2.62008">
        <ele>636.0495605</ele>
        <time>2014-01-11T09:19:27Z</time>
      </trkpt>
      <trkpt lat="44.33692" lon="2.62028">
        <ele>637.0107422</ele>
        <time>2014-01-11T09:19:33Z</time>
      </trkpt>
      <trkpt lat="44.33695" lon="2.62046">
        <ele>637.0107422</ele>
        <time>2014-01-11T09:19:38Z</time>
      </trkpt>
      <trkpt lat="44.33698" lon="2.62063">
        <ele>636.5302734</ele>
        <time>2014-01-11T09:19:43Z</time>
      </trkpt>
      <trkpt lat="44.33701" lon="2.62083">
        <ele>637.4914551</ele>
        <time>2014-01-11T09:19:49Z</time>
      </trkpt>
      <trkpt lat="44.33704" lon="2.62099">
        <ele>637.972168</ele>
        <time>2014-01-11T09:19:54Z</time>
      </trkpt>
      <trkpt lat="44.33705" lon="2.62118">
        <ele>637.972168</ele>
        <time>2014-01-11T09:20:00Z</time>
      </trkpt>
      <trkpt lat="44.33705" lon="2.62138">
        <ele>637.4914551</ele>
        <time>2014-01-11T09:20:06Z</time>
      </trkpt>
      <trkpt lat="44.33702" lon="2.62162">
        <ele>639.4140625</ele>
        <time>2014-01-11T09:20:14Z</time>
      </trkpt>
      <trkpt lat="44.33696" lon="2.62186">
        <ele>641.8173828</ele>
        <time>2014-01-11T09:20:22Z</time>
      </trkpt>
      <trkpt lat="44.33689" lon="2.62206">
        <ele>644.7011719</ele>
        <time>2014-01-11T09:20:29Z</time>
      </trkpt>
      <trkpt lat="44.33683" lon="2.62227">
        <ele>648.065918</ele>
        <time>2014-01-11T09:20:36Z</time>
      </trkpt>
      <trkpt lat="44.33678" lon="2.62245">
        <ele>649.5078125</ele>
        <time>2014-01-11T09:20:42Z</time>
      </trkpt>
      <trkpt lat="44.33674" lon="2.6226">
        <ele>651.4304199</ele>
        <time>2014-01-11T09:20:47Z</time>
      </trkpt>
      <trkpt lat="44.33669" lon="2.62279">
        <ele>652.8725586</ele>
        <time>2014-01-11T09:20:53Z</time>
      </trkpt>
      <trkpt lat="44.33663" lon="2.62299">
        <ele>654.3146973</ele>
        <time>2014-01-11T09:21:00Z</time>
      </trkpt>
      <trkpt lat="44.33657" lon="2.62316">
        <ele>656.7177734</ele>
        <time>2014-01-11T09:21:06Z</time>
      </trkpt>
      <trkpt lat="44.33652" lon="2.6233">
        <ele>657.6791992</ele>
        <time>2014-01-11T09:21:11Z</time>
      </trkpt>
      <trkpt lat="44.33647" lon="2.62351">
        <ele>657.1984863</ele>
        <time>2014-01-11T09:21:18Z</time>
      </trkpt>
      <trkpt lat="44.33646" lon="2.62372">
        <ele>656.2370605</ele>
        <time>2014-01-11T09:21:25Z</time>
      </trkpt>
      <trkpt lat="44.33646" lon="2.62395">
        <ele>654.795166</ele>
        <time>2014-01-11T09:21:33Z</time>
      </trkpt>
      <trkpt lat="44.33648" lon="2.62417">
        <ele>655.7565918</ele>
        <time>2014-01-11T09:21:40Z</time>
      </trkpt>
      <trkpt lat="44.3365" lon="2.62432">
        <ele>656.2370605</ele>
        <time>2014-01-11T09:21:45Z</time>
      </trkpt>
      <trkpt lat="44.33652" lon="2.62448">
        <ele>657.1984863</ele>
        <time>2014-01-11T09:21:50Z</time>
      </trkpt>
      <trkpt lat="44.33653" lon="2.62471">
        <ele>659.1210938</ele>
        <time>2014-01-11T09:21:57Z</time>
      </trkpt>
      <trkpt lat="44.33654" lon="2.62494">
        <ele>660.0822754</ele>
        <time>2014-01-11T09:22:04Z</time>
      </trkpt>
      <trkpt lat="44.33656" lon="2.62513">
        <ele>661.0437012</ele>
        <time>2014-01-11T09:22:10Z</time>
      </trkpt>
      <trkpt lat="44.33658" lon="2.62536">
        <ele>662.005127</ele>
        <time>2014-01-11T09:22:17Z</time>
      </trkpt>
      <trkpt lat="44.33661" lon="2.62561">
        <ele>663.4470215</ele>
        <time>2014-01-11T09:22:24Z</time>
      </trkpt>
      <trkpt lat="44.33662" lon="2.62576">
        <ele>664.4082031</ele>
        <time>2014-01-11T09:22:28Z</time>
      </trkpt>
      <trkpt lat="44.33663" lon="2.62594">
        <ele>665.8503418</ele>
        <time>2014-01-11T09:22:33Z</time>
      </trkpt>
      <trkpt lat="44.33662" lon="2.62612">
        <ele>666.8115234</ele>
        <time>2014-01-11T09:22:38Z</time>
      </trkpt>
      <trkpt lat="44.33659" lon="2.62634">
        <ele>668.2536621</ele>
        <time>2014-01-11T09:22:44Z</time>
      </trkpt>
      <trkpt lat="44.33654" lon="2.62649">
        <ele>667.7727051</ele>
        <time>2014-01-11T09:22:49Z</time>
      </trkpt>
      <trkpt lat="44.33642" lon="2.62657">
        <ele>666.8115234</ele>
        <time>2014-01-11T09:22:54Z</time>
      </trkpt>
      <trkpt lat="44.33626" lon="2.62652">
        <ele>664.888916</ele>
        <time>2014-01-11T09:23:00Z</time>
      </trkpt>
      <trkpt lat="44.33617" lon="2.62651">
        <ele>663.4470215</ele>
        <time>2014-01-11T09:23:04Z</time>
      </trkpt>
      <trkpt lat="44.33616" lon="2.62652">
        <ele>663.4470215</ele>
        <time>2014-01-11T09:23:05Z</time>
      </trkpt>
      <trkpt lat="44.33616" lon="2.62672">
        <ele>662.9663086</ele>
        <time>2014-01-11T09:23:10Z</time>
      </trkpt>
      <trkpt lat="44.33615" lon="2.62678">
        <ele>663.9274902</ele>
        <time>2014-01-11T09:23:12Z</time>
      </trkpt>
      <trkpt lat="44.33615" lon="2.62699">
        <ele>663.9274902</ele>
        <time>2014-01-11T09:23:18Z</time>
      </trkpt>
      <trkpt lat="44.33613" lon="2.62725">
        <ele>663.9274902</ele>
        <time>2014-01-11T09:23:25Z</time>
      </trkpt>
      <trkpt lat="44.3361" lon="2.62742">
        <ele>664.4082031</ele>
        <time>2014-01-11T09:23:30Z</time>
      </trkpt>
      <trkpt lat="44.33602" lon="2.62756">
        <ele>662.4855957</ele>
        <time>2014-01-11T09:23:35Z</time>
      </trkpt>
      <trkpt lat="44.33594" lon="2.62769">
        <ele>660.0822754</ele>
        <time>2014-01-11T09:23:40Z</time>
      </trkpt>
      <trkpt lat="44.33586" lon="2.6278">
        <ele>658.6403809</ele>
        <time>2014-01-11T09:23:44Z</time>
      </trkpt>
      <trkpt lat="44.33578" lon="2.62797">
        <ele>656.7177734</ele>
        <time>2014-01-11T09:23:49Z</time>
      </trkpt>
      <trkpt lat="44.33575" lon="2.62816">
        <ele>653.3532715</ele>
        <time>2014-01-11T09:23:54Z</time>
      </trkpt>
      <trkpt lat="44.33569" lon="2.62829">
        <ele>651.4304199</ele>
        <time>2014-01-11T09:23:58Z</time>
      </trkpt>
      <trkpt lat="44.33561" lon="2.62839">
        <ele>649.5078125</ele>
        <time>2014-01-11T09:24:02Z</time>
      </trkpt>
      <trkpt lat="44.33551" lon="2.62855">
        <ele>646.1433105</ele>
        <time>2014-01-11T09:24:08Z</time>
      </trkpt>
      <trkpt lat="44.33544" lon="2.62869">
        <ele>645.1818848</ele>
        <time>2014-01-11T09:24:13Z</time>
      </trkpt>
      <trkpt lat="44.33542" lon="2.62875">
        <ele>644.7011719</ele>
        <time>2014-01-11T09:24:15Z</time>
      </trkpt>
      <trkpt lat="44.33546" lon="2.62891">
        <ele>644.2207031</ele>
        <time>2014-01-11T09:24:20Z</time>
      </trkpt>
      <trkpt lat="44.33553" lon="2.62902">
        <ele>644.2207031</ele>
        <time>2014-01-11T09:24:25Z</time>
      </trkpt>
      <trkpt lat="44.3356" lon="2.62911">
        <ele>643.7399902</ele>
        <time>2014-01-11T09:24:30Z</time>
      </trkpt>
      <trkpt lat="44.33564" lon="2.62921">
        <ele>642.7788086</ele>
        <time>2014-01-11T09:24:34Z</time>
      </trkpt>
      <trkpt lat="44.33565" lon="2.62924">
        <ele>641.8173828</ele>
        <time>2014-01-11T09:24:36Z</time>
      </trkpt>
    </trkseg>
  </trk>
</gpx>